<?xml version="1.0" encoding="UTF-8" standalone="no" ?>
<gpx xmlns="http://www.topografix.com/GPX/1/1" xmlns:xsi="http://www.w3.org/2001/XMLSchema-instance" xsi:schemaLocation="http://www.topografix.com/GPX/1/1 http://www.topografix.com/GPX/1/1/gpx.xsd" version="1.1" creator="VisuGPX - https://www.visugpx.com">
  <metadata>
    <name>J4 Caylus - Nibouzou 48km</name>
  </metadata>
  <wpt lat="44.23667" lon="1.77949">
    <ele>241.7578125</ele>
    <name><![CDATA[Caylus Hebergerment]]></name>
    <type><![CDATA[user]]></type>
  </wpt>
  <trk>
    <name><![CDATA[J4 Caylus - Nibouzou 48km]]></name>
    <trkseg>
      <trkpt lat="44.23672" lon="1.77936">
        <ele>240.60546875</ele>
      </trkpt>
      <trkpt lat="44.23713" lon="1.7788">
        <ele>234.05078125</ele>
      </trkpt>
      <trkpt lat="44.23734" lon="1.77859">
        <ele>231.328125</ele>
      </trkpt>
      <trkpt lat="44.23742" lon="1.77841">
        <ele>231.28515625</ele>
      </trkpt>
      <trkpt lat="44.23742" lon="1.77806">
        <ele>229.32421875</ele>
      </trkpt>
      <trkpt lat="44.23753" lon="1.77787">
        <ele>226.4765625</ele>
      </trkpt>
      <trkpt lat="44.23765" lon="1.77786">
        <ele>223.76953125</ele>
      </trkpt>
      <trkpt lat="44.23769" lon="1.77748">
        <ele>219.8984375</ele>
      </trkpt>
      <trkpt lat="44.23785" lon="1.77732">
        <ele>214.9375</ele>
      </trkpt>
      <trkpt lat="44.23793" lon="1.77738">
        <ele>213.65234375</ele>
      </trkpt>
      <trkpt lat="44.23796" lon="1.77734">
        <ele>212.68359375</ele>
      </trkpt>
      <trkpt lat="44.23786" lon="1.77708">
        <ele>212.18359375</ele>
      </trkpt>
      <trkpt lat="44.23779" lon="1.77684">
        <ele>209.56640625</ele>
      </trkpt>
      <trkpt lat="44.23769" lon="1.77664">
        <ele>206.98828125</ele>
      </trkpt>
      <trkpt lat="44.23753" lon="1.7764">
        <ele>204.74609375</ele>
      </trkpt>
      <trkpt lat="44.23735" lon="1.77642">
        <ele>206.03515625</ele>
      </trkpt>
      <trkpt lat="44.23721" lon="1.77655">
        <ele>208.328125</ele>
      </trkpt>
      <trkpt lat="44.23709" lon="1.77659">
        <ele>208.6953125</ele>
      </trkpt>
      <trkpt lat="44.23703" lon="1.77632">
        <ele>202.74609375</ele>
      </trkpt>
      <trkpt lat="44.23709" lon="1.77613">
        <ele>197.83203125</ele>
      </trkpt>
      <trkpt lat="44.23665" lon="1.77596">
        <ele>194.33203125</ele>
      </trkpt>
      <trkpt lat="44.23628" lon="1.77575">
        <ele>192.1640625</ele>
      </trkpt>
      <trkpt lat="44.23588" lon="1.77548">
        <ele>190.125</ele>
      </trkpt>
      <trkpt lat="44.23579" lon="1.77544">
        <ele>190</ele>
      </trkpt>
      <trkpt lat="44.23576" lon="1.77486">
        <ele>192.98828125</ele>
      </trkpt>
      <trkpt lat="44.23563" lon="1.77418">
        <ele>200.34375</ele>
      </trkpt>
      <trkpt lat="44.23562" lon="1.77407">
        <ele>201.4375</ele>
      </trkpt>
      <trkpt lat="44.23553" lon="1.77372">
        <ele>203.93359375</ele>
      </trkpt>
      <trkpt lat="44.23552" lon="1.77341">
        <ele>206.2890625</ele>
      </trkpt>
      <trkpt lat="44.23571" lon="1.77273">
        <ele>215.76171875</ele>
      </trkpt>
      <trkpt lat="44.23584" lon="1.77218">
        <ele>221.96875</ele>
      </trkpt>
      <trkpt lat="44.236" lon="1.7717">
        <ele>228.2265625</ele>
      </trkpt>
      <trkpt lat="44.236" lon="1.77142">
        <ele>231.24609375</ele>
      </trkpt>
      <trkpt lat="44.236" lon="1.77075">
        <ele>233.68359375</ele>
      </trkpt>
      <trkpt lat="44.23598" lon="1.76987">
        <ele>233.515625</ele>
      </trkpt>
      <trkpt lat="44.23659" lon="1.76982">
        <ele>247.4375</ele>
      </trkpt>
      <trkpt lat="44.23661" lon="1.7695">
        <ele>246.609375</ele>
      </trkpt>
      <trkpt lat="44.23663" lon="1.76937">
        <ele>247.31640625</ele>
      </trkpt>
      <trkpt lat="44.23681" lon="1.76938">
        <ele>253.421875</ele>
      </trkpt>
      <trkpt lat="44.23686" lon="1.76959">
        <ele>256.125</ele>
      </trkpt>
      <trkpt lat="44.23687" lon="1.76968">
        <ele>256.87109375</ele>
      </trkpt>
      <trkpt lat="44.2369" lon="1.76975">
        <ele>258.5234375</ele>
      </trkpt>
      <trkpt lat="44.23699" lon="1.76954">
        <ele>260.39453125</ele>
      </trkpt>
      <trkpt lat="44.23711" lon="1.76937">
        <ele>263.89453125</ele>
      </trkpt>
      <trkpt lat="44.23729" lon="1.76918">
        <ele>269.984375</ele>
      </trkpt>
      <trkpt lat="44.2373" lon="1.76827">
        <ele>276.7265625</ele>
      </trkpt>
      <trkpt lat="44.23734" lon="1.76726">
        <ele>290.21484375</ele>
      </trkpt>
      <trkpt lat="44.23738" lon="1.76648">
        <ele>298.05078125</ele>
      </trkpt>
      <trkpt lat="44.23742" lon="1.76581">
        <ele>303.87109375</ele>
      </trkpt>
      <trkpt lat="44.23745" lon="1.76529">
        <ele>307.578125</ele>
      </trkpt>
      <trkpt lat="44.23723" lon="1.76382">
        <ele>314.6796875</ele>
      </trkpt>
      <trkpt lat="44.23649" lon="1.76392">
        <ele>314.484375</ele>
      </trkpt>
      <trkpt lat="44.23586" lon="1.76384">
        <ele>315.109375</ele>
      </trkpt>
      <trkpt lat="44.23524" lon="1.76378">
        <ele>318.609375</ele>
      </trkpt>
      <trkpt lat="44.23457" lon="1.76376">
        <ele>317.6484375</ele>
      </trkpt>
      <trkpt lat="44.23431" lon="1.76364">
        <ele>317.56640625</ele>
      </trkpt>
      <trkpt lat="44.23349" lon="1.76384">
        <ele>314</ele>
      </trkpt>
      <trkpt lat="44.23251" lon="1.76398">
        <ele>313.0078125</ele>
      </trkpt>
      <trkpt lat="44.2322" lon="1.76417">
        <ele>311.92578125</ele>
      </trkpt>
      <trkpt lat="44.232" lon="1.76425">
        <ele>311.20703125</ele>
      </trkpt>
      <trkpt lat="44.23165" lon="1.76425">
        <ele>310</ele>
      </trkpt>
      <trkpt lat="44.23156" lon="1.76397">
        <ele>314.49</ele>
        <time>2014-04-30T12:39:15Z</time>
      </trkpt>
      <trkpt lat="44.23134" lon="1.76356">
        <ele>314.49</ele>
        <time>2014-04-30T12:39:24Z</time>
      </trkpt>
      <trkpt lat="44.2313" lon="1.76356">
        <ele>314.49</ele>
        <time>2014-04-30T12:39:25Z</time>
      </trkpt>
      <trkpt lat="44.23126" lon="1.76357">
        <ele>314.97</ele>
        <time>2014-04-30T12:39:26Z</time>
      </trkpt>
      <trkpt lat="44.23076" lon="1.76368">
        <ele>314.01</ele>
        <time>2014-04-30T12:39:36Z</time>
      </trkpt>
      <trkpt lat="44.22999" lon="1.76366">
        <ele>312.09</ele>
        <time>2014-04-30T12:39:48Z</time>
      </trkpt>
      <trkpt lat="44.22992" lon="1.76366">
        <ele>312.09</ele>
        <time>2014-04-30T12:39:49Z</time>
      </trkpt>
      <trkpt lat="44.22985" lon="1.76369">
        <ele>312.09</ele>
        <time>2014-04-30T12:39:50Z</time>
      </trkpt>
      <trkpt lat="44.22979" lon="1.76372">
        <ele>311.6</ele>
        <time>2014-04-30T12:39:51Z</time>
      </trkpt>
      <trkpt lat="44.22972" lon="1.76375">
        <ele>311.6</ele>
        <time>2014-04-30T12:39:52Z</time>
      </trkpt>
      <trkpt lat="44.22896" lon="1.76396">
        <ele>309.68</ele>
        <time>2014-04-30T12:40:03Z</time>
      </trkpt>
      <trkpt lat="44.22818" lon="1.7642">
        <ele>308.72</ele>
        <time>2014-04-30T12:40:15Z</time>
      </trkpt>
      <trkpt lat="44.22811" lon="1.76423">
        <ele>308.72</ele>
        <time>2014-04-30T12:40:16Z</time>
      </trkpt>
      <trkpt lat="44.22804" lon="1.76424">
        <ele>308.24</ele>
        <time>2014-04-30T12:40:17Z</time>
      </trkpt>
      <trkpt lat="44.22797" lon="1.76425">
        <ele>308.24</ele>
        <time>2014-04-30T12:40:18Z</time>
      </trkpt>
      <trkpt lat="44.2279" lon="1.76425">
        <ele>308.24</ele>
        <time>2014-04-30T12:40:19Z</time>
      </trkpt>
      <trkpt lat="44.22783" lon="1.76424">
        <ele>307.28</ele>
        <time>2014-04-30T12:40:20Z</time>
      </trkpt>
      <trkpt lat="44.22769" lon="1.76422">
        <ele>306.8</ele>
        <time>2014-04-30T12:40:22Z</time>
      </trkpt>
      <trkpt lat="44.22763" lon="1.76419">
        <ele>306.8</ele>
        <time>2014-04-30T12:40:23Z</time>
      </trkpt>
      <trkpt lat="44.22756" lon="1.76416">
        <ele>306.8</ele>
        <time>2014-04-30T12:40:24Z</time>
      </trkpt>
      <trkpt lat="44.22723" lon="1.76394">
        <ele>302.47</ele>
        <time>2014-04-30T12:40:29Z</time>
      </trkpt>
      <trkpt lat="44.22715" lon="1.76391">
        <ele>301.99</ele>
        <time>2014-04-30T12:40:30Z</time>
      </trkpt>
      <trkpt lat="44.22706" lon="1.76389">
        <ele>301.03</ele>
        <time>2014-04-30T12:40:31Z</time>
      </trkpt>
      <trkpt lat="44.22697" lon="1.76389">
        <ele>300.55</ele>
        <time>2014-04-30T12:40:32Z</time>
      </trkpt>
      <trkpt lat="44.22688" lon="1.76389">
        <ele>300.07</ele>
        <time>2014-04-30T12:40:33Z</time>
      </trkpt>
      <trkpt lat="44.22679" lon="1.7639">
        <ele>300.07</ele>
        <time>2014-04-30T12:40:34Z</time>
      </trkpt>
      <trkpt lat="44.2264" lon="1.76392">
        <ele>302.95</ele>
        <time>2014-04-30T12:40:39Z</time>
      </trkpt>
      <trkpt lat="44.22635" lon="1.76394">
        <ele>302.95</ele>
        <time>2014-04-30T12:40:40Z</time>
      </trkpt>
      <trkpt lat="44.22628" lon="1.76396">
        <ele>304.39</ele>
        <time>2014-04-30T12:40:42Z</time>
      </trkpt>
      <trkpt lat="44.22625" lon="1.76397">
        <ele>304.39</ele>
        <time>2014-04-30T12:40:43Z</time>
      </trkpt>
      <trkpt lat="44.22565" lon="1.76415">
        <ele>311.12</ele>
        <time>2014-04-30T12:41:06Z</time>
      </trkpt>
      <trkpt lat="44.22523" lon="1.76416">
        <ele>314.49</ele>
        <time>2014-04-30T12:41:20Z</time>
      </trkpt>
      <trkpt lat="44.22419" lon="1.76438">
        <ele>320.74</ele>
        <time>2014-04-30T12:41:55Z</time>
      </trkpt>
      <trkpt lat="44.22373" lon="1.76459">
        <ele>323.14</ele>
        <time>2014-04-30T12:42:12Z</time>
      </trkpt>
      <trkpt lat="44.22299" lon="1.76482">
        <ele>329.39</ele>
        <time>2014-04-30T12:42:39Z</time>
      </trkpt>
      <trkpt lat="44.22257" lon="1.76494">
        <ele>332.75</ele>
        <time>2014-04-30T12:42:54Z</time>
      </trkpt>
      <trkpt lat="44.22175" lon="1.76511">
        <ele>338.04</ele>
        <time>2014-04-30T12:43:24Z</time>
      </trkpt>
      <trkpt lat="44.22117" lon="1.7651">
        <ele>340.44</ele>
        <time>2014-04-30T12:43:43Z</time>
      </trkpt>
      <trkpt lat="44.22047" lon="1.76511">
        <ele>340.92</ele>
        <time>2014-04-30T12:44:06Z</time>
      </trkpt>
      <trkpt lat="44.22042" lon="1.7651">
        <ele>340.92</ele>
        <time>2014-04-30T12:44:07Z</time>
      </trkpt>
      <trkpt lat="44.22033" lon="1.76506">
        <ele>339</ele>
        <time>2014-04-30T12:44:09Z</time>
      </trkpt>
      <trkpt lat="44.22029" lon="1.76503">
        <ele>339</ele>
        <time>2014-04-30T12:44:10Z</time>
      </trkpt>
      <trkpt lat="44.21998" lon="1.76478">
        <ele>337.08</ele>
        <time>2014-04-30T12:44:16Z</time>
      </trkpt>
      <trkpt lat="44.2194" lon="1.76431">
        <ele>333.71</ele>
        <time>2014-04-30T12:44:27Z</time>
      </trkpt>
      <trkpt lat="44.2181" lon="1.7629">
        <ele>329.87</ele>
        <time>2014-04-30T12:44:55Z</time>
      </trkpt>
      <trkpt lat="44.21807" lon="1.76285">
        <ele>329.87</ele>
        <time>2014-04-30T12:44:56Z</time>
      </trkpt>
      <trkpt lat="44.21801" lon="1.76272">
        <ele>329.87</ele>
        <time>2014-04-30T12:44:58Z</time>
      </trkpt>
      <trkpt lat="44.21798" lon="1.76265">
        <ele>328.91</ele>
        <time>2014-04-30T12:44:59Z</time>
      </trkpt>
      <trkpt lat="44.21768" lon="1.76206">
        <ele>326.99</ele>
        <time>2014-04-30T12:45:08Z</time>
      </trkpt>
      <trkpt lat="44.21764" lon="1.762">
        <ele>326.99</ele>
        <time>2014-04-30T12:45:09Z</time>
      </trkpt>
      <trkpt lat="44.21718" lon="1.76101">
        <ele>322.18</ele>
        <time>2014-04-30T12:45:22Z</time>
      </trkpt>
      <trkpt lat="44.21714" lon="1.76093">
        <ele>321.7</ele>
        <time>2014-04-30T12:45:23Z</time>
      </trkpt>
      <trkpt lat="44.21676" lon="1.76044">
        <ele>317.37</ele>
        <time>2014-04-30T12:45:30Z</time>
      </trkpt>
      <trkpt lat="44.21669" lon="1.76041">
        <ele>316.89</ele>
        <time>2014-04-30T12:45:31Z</time>
      </trkpt>
      <trkpt lat="44.21654" lon="1.76037">
        <ele>316.89</ele>
        <time>2014-04-30T12:45:33Z</time>
      </trkpt>
      <trkpt lat="44.21647" lon="1.76035">
        <ele>315.93</ele>
        <time>2014-04-30T12:45:34Z</time>
      </trkpt>
      <trkpt lat="44.21634" lon="1.76027">
        <ele>314.49</ele>
        <time>2014-04-30T12:45:36Z</time>
      </trkpt>
      <trkpt lat="44.21627" lon="1.76022">
        <ele>314.49</ele>
        <time>2014-04-30T12:45:37Z</time>
      </trkpt>
      <trkpt lat="44.2156" lon="1.75974">
        <ele>309.2</ele>
        <time>2014-04-30T12:45:47Z</time>
      </trkpt>
      <trkpt lat="44.21553" lon="1.7597">
        <ele>309.2</ele>
        <time>2014-04-30T12:45:48Z</time>
      </trkpt>
      <trkpt lat="44.21514" lon="1.75939">
        <ele>306.8</ele>
        <time>2014-04-30T12:45:54Z</time>
      </trkpt>
      <trkpt lat="44.21497" lon="1.75918">
        <ele>304.88</ele>
        <time>2014-04-30T12:45:57Z</time>
      </trkpt>
      <trkpt lat="44.21483" lon="1.7591">
        <ele>304.39</ele>
        <time>2014-04-30T12:45:59Z</time>
      </trkpt>
      <trkpt lat="44.21477" lon="1.75906">
        <ele>303.91</ele>
        <time>2014-04-30T12:46:00Z</time>
      </trkpt>
      <trkpt lat="44.21462" lon="1.75899">
        <ele>302.95</ele>
        <time>2014-04-30T12:46:02Z</time>
      </trkpt>
      <trkpt lat="44.21433" lon="1.75888">
        <ele>301.51</ele>
        <time>2014-04-30T12:46:06Z</time>
      </trkpt>
      <trkpt lat="44.21405" lon="1.7588">
        <ele>299.11</ele>
        <time>2014-04-30T12:46:10Z</time>
      </trkpt>
      <trkpt lat="44.21338" lon="1.75857">
        <ele>300.55</ele>
        <time>2014-04-30T12:46:22Z</time>
      </trkpt>
      <trkpt lat="44.21229" lon="1.75865">
        <ele>304.39</ele>
        <time>2014-04-30T12:46:45Z</time>
      </trkpt>
      <trkpt lat="44.21157" lon="1.75865">
        <ele>305.84</ele>
        <time>2014-04-30T12:47:00Z</time>
      </trkpt>
      <trkpt lat="44.2107" lon="1.75812">
        <ele>308.24</ele>
        <time>2014-04-30T12:47:20Z</time>
      </trkpt>
      <trkpt lat="44.21067" lon="1.75808">
        <ele>308.24</ele>
        <time>2014-04-30T12:47:21Z</time>
      </trkpt>
      <trkpt lat="44.20956" lon="1.75695">
        <ele>302.95</ele>
        <time>2014-04-30T12:47:44Z</time>
      </trkpt>
      <trkpt lat="44.2092" lon="1.7567">
        <ele>303.43</ele>
        <time>2014-04-30T12:47:50Z</time>
      </trkpt>
      <trkpt lat="44.20774" lon="1.75632">
        <ele>304.39</ele>
        <time>2014-04-30T12:48:15Z</time>
      </trkpt>
      <trkpt lat="44.20769" lon="1.75632">
        <ele>304.39</ele>
        <time>2014-04-30T12:48:16Z</time>
      </trkpt>
      <trkpt lat="44.20759" lon="1.7563">
        <ele>305.84</ele>
        <time>2014-04-30T12:48:18Z</time>
      </trkpt>
      <trkpt lat="44.20755" lon="1.75629">
        <ele>305.84</ele>
        <time>2014-04-30T12:48:19Z</time>
      </trkpt>
      <trkpt lat="44.20745" lon="1.75627">
        <ele>306.32</ele>
        <time>2014-04-30T12:48:21Z</time>
      </trkpt>
      <trkpt lat="44.2074" lon="1.75628">
        <ele>306.8</ele>
        <time>2014-04-30T12:48:22Z</time>
      </trkpt>
      <trkpt lat="44.2072" lon="1.75628">
        <ele>307.28</ele>
        <time>2014-04-30T12:48:26Z</time>
      </trkpt>
      <trkpt lat="44.20716" lon="1.75627">
        <ele>308.24</ele>
        <time>2014-04-30T12:48:27Z</time>
      </trkpt>
      <trkpt lat="44.20583" lon="1.75572">
        <ele>314.49</ele>
        <time>2014-04-30T12:48:57Z</time>
      </trkpt>
      <trkpt lat="44.20546" lon="1.75556">
        <ele>313.05</ele>
        <time>2014-04-30T12:49:05Z</time>
      </trkpt>
      <trkpt lat="44.20424" lon="1.75464">
        <ele>308.72</ele>
        <time>2014-04-30T12:49:28Z</time>
      </trkpt>
      <trkpt lat="44.20406" lon="1.75454">
        <ele>308.24</ele>
        <time>2014-04-30T12:49:31Z</time>
      </trkpt>
      <trkpt lat="44.20284" lon="1.75392">
        <ele>308.24</ele>
        <time>2014-04-30T12:49:52Z</time>
      </trkpt>
      <trkpt lat="44.20279" lon="1.75389">
        <ele>308.24</ele>
        <time>2014-04-30T12:49:53Z</time>
      </trkpt>
      <trkpt lat="44.20269" lon="1.75384">
        <ele>308.24</ele>
        <time>2014-04-30T12:49:55Z</time>
      </trkpt>
      <trkpt lat="44.20264" lon="1.75381">
        <ele>308.24</ele>
        <time>2014-04-30T12:49:56Z</time>
      </trkpt>
      <trkpt lat="44.20203" lon="1.75349">
        <ele>307.76</ele>
        <time>2014-04-30T12:50:08Z</time>
      </trkpt>
      <trkpt lat="44.20198" lon="1.75346">
        <ele>307.76</ele>
        <time>2014-04-30T12:50:09Z</time>
      </trkpt>
      <trkpt lat="44.20138" lon="1.75323">
        <ele>307.76</ele>
        <time>2014-04-30T12:50:20Z</time>
      </trkpt>
      <trkpt lat="44.2007" lon="1.75293">
        <ele>307.76</ele>
        <time>2014-04-30T12:50:34Z</time>
      </trkpt>
      <trkpt lat="44.19988" lon="1.75265">
        <ele>303.43</ele>
        <time>2014-04-30T12:50:49Z</time>
      </trkpt>
      <trkpt lat="44.19969" lon="1.7526">
        <ele>301.51</ele>
        <time>2014-04-30T12:50:52Z</time>
      </trkpt>
      <trkpt lat="44.19961" lon="1.75251">
        <ele>301.03</ele>
        <time>2014-04-30T12:50:54Z</time>
      </trkpt>
      <trkpt lat="44.19959" lon="1.75244">
        <ele>301.03</ele>
        <time>2014-04-30T12:50:55Z</time>
      </trkpt>
      <trkpt lat="44.19975" lon="1.75164">
        <ele>296.7</ele>
        <time>2014-04-30T12:51:05Z</time>
      </trkpt>
      <trkpt lat="44.19979" lon="1.75145">
        <ele>294.3</ele>
        <time>2014-04-30T12:51:07Z</time>
      </trkpt>
      <trkpt lat="44.19966" lon="1.75122">
        <ele>289.01</ele>
        <time>2014-04-30T12:51:24Z</time>
      </trkpt>
      <trkpt lat="44.19958" lon="1.75107">
        <ele>287.09</ele>
        <time>2014-04-30T12:51:27Z</time>
      </trkpt>
      <trkpt lat="44.19953" lon="1.75075">
        <ele>288.05</ele>
        <time>2014-04-30T12:51:34Z</time>
      </trkpt>
      <trkpt lat="44.19962" lon="1.75054">
        <ele>285.17</ele>
        <time>2014-04-30T12:51:41Z</time>
      </trkpt>
      <trkpt lat="44.19984" lon="1.74968">
        <ele>281.32</ele>
        <time>2014-04-30T12:51:57Z</time>
      </trkpt>
      <trkpt lat="44.19998" lon="1.74921">
        <ele>277.48</ele>
        <time>2014-04-30T12:52:06Z</time>
      </trkpt>
      <trkpt lat="44.20021" lon="1.74862">
        <ele>269.79</ele>
        <time>2014-04-30T12:52:18Z</time>
      </trkpt>
      <trkpt lat="44.20027" lon="1.74859">
        <ele>267.86</ele>
        <time>2014-04-30T12:52:20Z</time>
      </trkpt>
      <trkpt lat="44.20041" lon="1.74863">
        <ele>260.65</ele>
        <time>2014-04-30T12:52:29Z</time>
      </trkpt>
      <trkpt lat="44.2005" lon="1.7485">
        <ele>260.17</ele>
        <time>2014-04-30T12:52:31Z</time>
      </trkpt>
      <trkpt lat="44.20034" lon="1.74817">
        <ele>261.14</ele>
        <time>2014-04-30T12:52:45Z</time>
      </trkpt>
      <trkpt lat="44.20025" lon="1.74791">
        <ele>260.17</ele>
        <time>2014-04-30T12:52:51Z</time>
      </trkpt>
      <trkpt lat="44.19996" lon="1.74738">
        <ele>256.81</ele>
        <time>2014-04-30T12:53:02Z</time>
      </trkpt>
      <trkpt lat="44.19985" lon="1.74705">
        <ele>252.96</ele>
        <time>2014-04-30T12:53:08Z</time>
      </trkpt>
      <trkpt lat="44.19981" lon="1.74683">
        <ele>251.04</ele>
        <time>2014-04-30T12:53:12Z</time>
      </trkpt>
      <trkpt lat="44.19989" lon="1.7467">
        <ele>250.56</ele>
        <time>2014-04-30T12:53:18Z</time>
      </trkpt>
      <trkpt lat="44.19986" lon="1.74632">
        <ele>247.68</ele>
        <time>2014-04-30T12:53:26Z</time>
      </trkpt>
      <trkpt lat="44.19974" lon="1.74602">
        <ele>246.72</ele>
        <time>2014-04-30T12:53:30Z</time>
      </trkpt>
      <trkpt lat="44.19963" lon="1.74576">
        <ele>245.75</ele>
        <time>2014-04-30T12:53:34Z</time>
      </trkpt>
      <trkpt lat="44.19955" lon="1.74559">
        <ele>244.31</ele>
        <time>2014-04-30T12:53:37Z</time>
      </trkpt>
      <trkpt lat="44.19917" lon="1.74476">
        <ele>237.58</ele>
        <time>2014-04-30T12:53:51Z</time>
      </trkpt>
      <trkpt lat="44.19909" lon="1.7447">
        <ele>237.1</ele>
        <time>2014-04-30T12:53:53Z</time>
      </trkpt>
      <trkpt lat="44.19866" lon="1.74435">
        <ele>232.3</ele>
        <time>2014-04-30T12:54:06Z</time>
      </trkpt>
      <trkpt lat="44.19859" lon="1.74432">
        <ele>231.33</ele>
        <time>2014-04-30T12:54:08Z</time>
      </trkpt>
      <trkpt lat="44.19851" lon="1.74426">
        <ele>230.37</ele>
        <time>2014-04-30T12:54:12Z</time>
      </trkpt>
      <trkpt lat="44.19841" lon="1.74416">
        <ele>228.93</ele>
        <time>2014-04-30T12:54:17Z</time>
      </trkpt>
      <trkpt lat="44.19805" lon="1.74394">
        <ele>224.12</ele>
        <time>2014-04-30T12:54:31Z</time>
      </trkpt>
      <trkpt lat="44.19802" lon="1.74395">
        <ele>223.16</ele>
        <time>2014-04-30T12:54:33Z</time>
      </trkpt>
      <trkpt lat="44.19771" lon="1.74377">
        <ele>220.76</ele>
        <time>2014-04-30T12:54:55Z</time>
      </trkpt>
      <trkpt lat="44.19768" lon="1.74375">
        <ele>222.2</ele>
        <time>2014-04-30T12:55:00Z</time>
      </trkpt>
      <trkpt lat="44.19718" lon="1.74358">
        <ele>217.4</ele>
        <time>2014-04-30T12:55:25Z</time>
      </trkpt>
      <trkpt lat="44.19714" lon="1.74357">
        <ele>217.4</ele>
        <time>2014-04-30T12:55:26Z</time>
      </trkpt>
      <trkpt lat="44.19665" lon="1.74351">
        <ele>211.15</ele>
        <time>2014-04-30T12:55:38Z</time>
      </trkpt>
      <trkpt lat="44.1964" lon="1.74343">
        <ele>208.26</ele>
        <time>2014-04-30T12:55:45Z</time>
      </trkpt>
      <trkpt lat="44.19609" lon="1.74287">
        <ele>202.49</ele>
        <time>2014-04-30T12:56:05Z</time>
      </trkpt>
      <trkpt lat="44.196" lon="1.74239">
        <ele>201.05</ele>
        <time>2014-04-30T12:56:20Z</time>
      </trkpt>
      <trkpt lat="44.19578" lon="1.74234">
        <ele>200.09</ele>
        <time>2014-04-30T12:56:35Z</time>
      </trkpt>
      <trkpt lat="44.19572" lon="1.74216">
        <ele>199.13</ele>
        <time>2014-04-30T12:56:42Z</time>
      </trkpt>
      <trkpt lat="44.19569" lon="1.74142">
        <ele>193.36</ele>
        <time>2014-04-30T12:57:10Z</time>
      </trkpt>
      <trkpt lat="44.19572" lon="1.74132">
        <ele>189.1</ele>
      </trkpt>
      <trkpt lat="44.19584" lon="1.74084">
        <ele>186.4</ele>
      </trkpt>
      <trkpt lat="44.19606" lon="1.74068">
        <ele>191</ele>
      </trkpt>
      <trkpt lat="44.19636" lon="1.73995">
        <ele>191.3</ele>
      </trkpt>
      <trkpt lat="44.1965" lon="1.73923">
        <ele>188.7</ele>
      </trkpt>
      <trkpt lat="44.19687" lon="1.73895">
        <ele>190.7</ele>
      </trkpt>
      <trkpt lat="44.1967" lon="1.73798">
        <ele>191</ele>
      </trkpt>
      <trkpt lat="44.19689" lon="1.73755">
        <ele>196.6</ele>
      </trkpt>
      <trkpt lat="44.19686" lon="1.73667">
        <ele>197.4</ele>
      </trkpt>
      <trkpt lat="44.1969" lon="1.7364">
        <ele>198.5</ele>
      </trkpt>
      <trkpt lat="44.19683" lon="1.73608">
        <ele>197.8</ele>
      </trkpt>
      <trkpt lat="44.19687" lon="1.73543">
        <ele>198.5</ele>
      </trkpt>
      <trkpt lat="44.19694" lon="1.73492">
        <ele>202.3</ele>
      </trkpt>
      <trkpt lat="44.19707" lon="1.73471">
        <ele>207.5</ele>
      </trkpt>
      <trkpt lat="44.19726" lon="1.73448">
        <ele>210.7</ele>
      </trkpt>
      <trkpt lat="44.19736" lon="1.73431">
        <ele>212.8</ele>
      </trkpt>
      <trkpt lat="44.19731" lon="1.73416">
        <ele>212.6</ele>
      </trkpt>
      <trkpt lat="44.19722" lon="1.73409">
        <ele>214.8</ele>
      </trkpt>
      <trkpt lat="44.19702" lon="1.734">
        <ele>214.2</ele>
      </trkpt>
      <trkpt lat="44.19672" lon="1.73344">
        <ele>210.2</ele>
      </trkpt>
      <trkpt lat="44.19659" lon="1.73327">
        <ele>208.5</ele>
      </trkpt>
      <trkpt lat="44.19623" lon="1.73286">
        <ele>205.7</ele>
      </trkpt>
      <trkpt lat="44.19608" lon="1.73251">
        <ele>206.4</ele>
      </trkpt>
      <trkpt lat="44.19592" lon="1.7321">
        <ele>206.1</ele>
      </trkpt>
      <trkpt lat="44.19593" lon="1.73157">
        <ele>207.9</ele>
      </trkpt>
      <trkpt lat="44.19605" lon="1.73064">
        <ele>208.4</ele>
      </trkpt>
      <trkpt lat="44.19625" lon="1.72997">
        <ele>212.7</ele>
      </trkpt>
      <trkpt lat="44.19625" lon="1.72986">
        <ele>212.3</ele>
      </trkpt>
      <trkpt lat="44.19615" lon="1.72914">
        <ele>210.1</ele>
      </trkpt>
      <trkpt lat="44.19605" lon="1.72852">
        <ele>212.4</ele>
      </trkpt>
      <trkpt lat="44.19601" lon="1.72781">
        <ele>213.5</ele>
      </trkpt>
      <trkpt lat="44.19591" lon="1.72718">
        <ele>213.5</ele>
      </trkpt>
      <trkpt lat="44.19589" lon="1.72696">
        <ele>214.3</ele>
      </trkpt>
      <trkpt lat="44.19589" lon="1.72695">
        <ele>220.28</ele>
        <time>2014-04-30T13:30:07Z</time>
      </trkpt>
      <trkpt lat="44.19647" lon="1.72579">
        <ele>224.61</ele>
        <time>2014-04-30T13:29:43Z</time>
      </trkpt>
      <trkpt lat="44.19694" lon="1.72499">
        <ele>227.97</ele>
        <time>2014-04-30T13:29:32Z</time>
      </trkpt>
      <trkpt lat="44.19777" lon="1.7237">
        <ele>234.7</ele>
        <time>2014-04-30T13:29:17Z</time>
      </trkpt>
      <trkpt lat="44.19783" lon="1.72362">
        <ele>235.18</ele>
        <time>2014-04-30T13:29:16Z</time>
      </trkpt>
      <trkpt lat="44.1984" lon="1.72285">
        <ele>241.91</ele>
        <time>2014-04-30T13:29:06Z</time>
      </trkpt>
      <trkpt lat="44.19849" lon="1.72253">
        <ele>244.31</ele>
        <time>2014-04-30T13:29:03Z</time>
      </trkpt>
      <trkpt lat="44.1987" lon="1.72183">
        <ele>250.08</ele>
        <time>2014-04-30T13:28:55Z</time>
      </trkpt>
      <trkpt lat="44.19876" lon="1.72152">
        <ele>252.48</ele>
        <time>2014-04-30T13:28:51Z</time>
      </trkpt>
      <trkpt lat="44.19882" lon="1.72108">
        <ele>255.85</ele>
        <time>2014-04-30T13:28:42Z</time>
      </trkpt>
      <trkpt lat="44.19881" lon="1.72103">
        <ele>255.85</ele>
        <time>2014-04-30T13:28:32Z</time>
      </trkpt>
      <trkpt lat="44.19886" lon="1.72054">
        <ele>255.85</ele>
        <time>2014-04-30T13:27:49Z</time>
      </trkpt>
      <trkpt lat="44.19899" lon="1.72053">
        <ele>257.29</ele>
        <time>2014-04-30T13:27:47Z</time>
      </trkpt>
      <trkpt lat="44.19908" lon="1.72058">
        <ele>259.21</ele>
        <time>2014-04-30T13:27:44Z</time>
      </trkpt>
      <trkpt lat="44.19905" lon="1.7209">
        <ele>260.65</ele>
        <time>2014-04-30T13:27:39Z</time>
      </trkpt>
      <trkpt lat="44.19904" lon="1.72152">
        <ele>262.1</ele>
        <time>2014-04-30T13:27:32Z</time>
      </trkpt>
      <trkpt lat="44.19902" lon="1.72171">
        <ele>262.58</ele>
        <time>2014-04-30T13:27:30Z</time>
      </trkpt>
      <trkpt lat="44.19877" lon="1.72277">
        <ele>265.94</ele>
        <time>2014-04-30T13:27:19Z</time>
      </trkpt>
      <trkpt lat="44.19885" lon="1.7232">
        <ele>269.31</ele>
        <time>2014-04-30T13:27:15Z</time>
      </trkpt>
      <trkpt lat="44.19905" lon="1.72361">
        <ele>274.59</ele>
        <time>2014-04-30T13:27:10Z</time>
      </trkpt>
      <trkpt lat="44.19883" lon="1.72395">
        <ele>277.48</ele>
        <time>2014-04-30T13:27:03Z</time>
      </trkpt>
      <trkpt lat="44.19854" lon="1.7241">
        <ele>279.4</ele>
        <time>2014-04-30T13:26:58Z</time>
      </trkpt>
      <trkpt lat="44.19828" lon="1.72464">
        <ele>284.21</ele>
        <time>2014-04-30T13:26:50Z</time>
      </trkpt>
      <trkpt lat="44.19853" lon="1.72432">
        <ele>287.09</ele>
        <time>2014-04-30T13:26:43Z</time>
      </trkpt>
      <trkpt lat="44.19879" lon="1.7242">
        <ele>289.97</ele>
        <time>2014-04-30T13:26:39Z</time>
      </trkpt>
      <trkpt lat="44.1992" lon="1.72433">
        <ele>294.78</ele>
        <time>2014-04-30T13:26:33Z</time>
      </trkpt>
      <trkpt lat="44.19932" lon="1.72438">
        <ele>296.7</ele>
        <time>2014-04-30T13:26:31Z</time>
      </trkpt>
      <trkpt lat="44.19969" lon="1.72447">
        <ele>301.03</ele>
        <time>2014-04-30T13:26:23Z</time>
      </trkpt>
      <trkpt lat="44.19977" lon="1.72451">
        <ele>301.51</ele>
        <time>2014-04-30T13:26:19Z</time>
      </trkpt>
      <trkpt lat="44.19979" lon="1.72455">
        <ele>301.99</ele>
        <time>2014-04-30T13:26:03Z</time>
      </trkpt>
      <trkpt lat="44.20005" lon="1.72477">
        <ele>304.88</ele>
        <time>2014-04-30T13:25:53Z</time>
      </trkpt>
      <trkpt lat="44.20052" lon="1.72463">
        <ele>307.28</ele>
        <time>2014-04-30T13:25:35Z</time>
      </trkpt>
      <trkpt lat="44.20054" lon="1.72461">
        <ele>307.28</ele>
        <time>2014-04-30T13:25:34Z</time>
      </trkpt>
      <trkpt lat="44.20064" lon="1.72413">
        <ele>307.28</ele>
        <time>2014-04-30T13:25:17Z</time>
      </trkpt>
      <trkpt lat="44.20074" lon="1.72375">
        <ele>307.28</ele>
        <time>2014-04-30T13:25:03Z</time>
      </trkpt>
      <trkpt lat="44.20092" lon="1.72318">
        <ele>307.28</ele>
        <time>2014-04-30T13:24:33Z</time>
      </trkpt>
      <trkpt lat="44.2009" lon="1.72313">
        <ele>307.28</ele>
        <time>2014-04-30T13:24:17Z</time>
      </trkpt>
      <trkpt lat="44.20085" lon="1.72281">
        <ele>305.84</ele>
        <time>2014-04-30T13:23:46Z</time>
      </trkpt>
      <trkpt lat="44.20074" lon="1.72236">
        <ele>305.36</ele>
        <time>2014-04-30T13:23:29Z</time>
      </trkpt>
      <trkpt lat="44.20041" lon="1.72181">
        <ele>301.99</ele>
        <time>2014-04-30T13:22:56Z</time>
      </trkpt>
      <trkpt lat="44.20021" lon="1.7216">
        <ele>298.15</ele>
        <time>2014-04-30T13:22:37Z</time>
      </trkpt>
      <trkpt lat="44.20012" lon="1.7214">
        <ele>295.26</ele>
        <time>2014-04-30T13:22:22Z</time>
      </trkpt>
      <trkpt lat="44.19996" lon="1.72131">
        <ele>292.86</ele>
        <time>2014-04-30T13:22:07Z</time>
      </trkpt>
      <trkpt lat="44.19974" lon="1.72125">
        <ele>289.49</ele>
        <time>2014-04-30T13:21:51Z</time>
      </trkpt>
      <trkpt lat="44.19967" lon="1.72118">
        <ele>288.53</ele>
        <time>2014-04-30T13:21:43Z</time>
      </trkpt>
      <trkpt lat="44.19963" lon="1.7211">
        <ele>289.49</ele>
        <time>2014-04-30T13:21:17Z</time>
      </trkpt>
      <trkpt lat="44.1996" lon="1.721">
        <ele>290.94</ele>
        <time>2014-04-30T13:21:14Z</time>
      </trkpt>
      <trkpt lat="44.19959" lon="1.72028">
        <ele>289.49</ele>
        <time>2014-04-30T13:20:46Z</time>
      </trkpt>
      <trkpt lat="44.19974" lon="1.71992">
        <ele>287.57</ele>
        <time>2014-04-30T13:20:31Z</time>
      </trkpt>
      <trkpt lat="44.19976" lon="1.71989">
        <ele>287.57</ele>
        <time>2014-04-30T13:20:19Z</time>
      </trkpt>
      <trkpt lat="44.19975" lon="1.71981">
        <ele>285.65</ele>
        <time>2014-04-30T13:20:05Z</time>
      </trkpt>
      <trkpt lat="44.19967" lon="1.71971">
        <ele>285.65</ele>
        <time>2014-04-30T13:18:40Z</time>
      </trkpt>
      <trkpt lat="44.19966" lon="1.71969">
        <ele>286.61</ele>
        <time>2014-04-30T13:18:39Z</time>
      </trkpt>
      <trkpt lat="44.19958" lon="1.71966">
        <ele>286.61</ele>
        <time>2014-04-30T13:18:35Z</time>
      </trkpt>
      <trkpt lat="44.19956" lon="1.71965">
        <ele>287.09</ele>
        <time>2014-04-30T13:18:34Z</time>
      </trkpt>
      <trkpt lat="44.19951" lon="1.71965">
        <ele>287.09</ele>
        <time>2014-04-30T13:18:32Z</time>
      </trkpt>
      <trkpt lat="44.19948" lon="1.71965">
        <ele>288.05</ele>
        <time>2014-04-30T13:18:31Z</time>
      </trkpt>
      <trkpt lat="44.19922" lon="1.71971">
        <ele>289.01</ele>
        <time>2014-04-30T13:18:22Z</time>
      </trkpt>
      <trkpt lat="44.1992" lon="1.71975">
        <ele>289.01</ele>
        <time>2014-04-30T13:18:21Z</time>
      </trkpt>
      <trkpt lat="44.19913" lon="1.71978">
        <ele>289.01</ele>
        <time>2014-04-30T13:18:19Z</time>
      </trkpt>
      <trkpt lat="44.19911" lon="1.71978">
        <ele>289.01</ele>
        <time>2014-04-30T13:18:18Z</time>
      </trkpt>
      <trkpt lat="44.19908" lon="1.71974">
        <ele>289.97</ele>
        <time>2014-04-30T13:18:16Z</time>
      </trkpt>
      <trkpt lat="44.19906" lon="1.71972">
        <ele>289.97</ele>
        <time>2014-04-30T13:18:15Z</time>
      </trkpt>
      <trkpt lat="44.19899" lon="1.7197">
        <ele>289.97</ele>
        <time>2014-04-30T13:18:12Z</time>
      </trkpt>
      <trkpt lat="44.19896" lon="1.71971">
        <ele>289.97</ele>
        <time>2014-04-30T13:18:11Z</time>
      </trkpt>
      <trkpt lat="44.1989" lon="1.71974">
        <ele>289.97</ele>
        <time>2014-04-30T13:18:09Z</time>
      </trkpt>
      <trkpt lat="44.19887" lon="1.71978">
        <ele>289.97</ele>
        <time>2014-04-30T13:18:08Z</time>
      </trkpt>
      <trkpt lat="44.19881" lon="1.71985">
        <ele>290.46</ele>
        <time>2014-04-30T13:18:06Z</time>
      </trkpt>
      <trkpt lat="44.19872" lon="1.71992">
        <ele>290.94</ele>
        <time>2014-04-30T13:18:04Z</time>
      </trkpt>
      <trkpt lat="44.19854" lon="1.72003">
        <ele>291.9</ele>
        <time>2014-04-30T13:18:00Z</time>
      </trkpt>
      <trkpt lat="44.19841" lon="1.72011">
        <ele>293.34</ele>
        <time>2014-04-30T13:17:57Z</time>
      </trkpt>
      <trkpt lat="44.19828" lon="1.72017">
        <ele>293.34</ele>
        <time>2014-04-30T13:17:54Z</time>
      </trkpt>
      <trkpt lat="44.19803" lon="1.72053">
        <ele>294.3</ele>
        <time>2014-04-30T13:17:45Z</time>
      </trkpt>
      <trkpt lat="44.19735" lon="1.7211">
        <ele>297.67</ele>
        <time>2014-04-30T13:17:22Z</time>
      </trkpt>
      <trkpt lat="44.19718" lon="1.7215">
        <ele>296.22</ele>
        <time>2014-04-30T13:17:10Z</time>
      </trkpt>
      <trkpt lat="44.19672" lon="1.72249">
        <ele>292.38</ele>
        <time>2014-04-30T13:16:46Z</time>
      </trkpt>
      <trkpt lat="44.19638" lon="1.72277">
        <ele>292.38</ele>
        <time>2014-04-30T13:16:34Z</time>
      </trkpt>
      <trkpt lat="44.19586" lon="1.72361">
        <ele>289.97</ele>
        <time>2014-04-30T13:16:05Z</time>
      </trkpt>
      <trkpt lat="44.19566" lon="1.72399">
        <ele>289.97</ele>
        <time>2014-04-30T13:15:52Z</time>
      </trkpt>
      <trkpt lat="44.19541" lon="1.72427">
        <ele>291.9</ele>
        <time>2014-04-30T13:15:39Z</time>
      </trkpt>
      <trkpt lat="44.19539" lon="1.72425">
        <ele>291.9</ele>
        <time>2014-04-30T13:15:38Z</time>
      </trkpt>
      <trkpt lat="44.19513" lon="1.72375">
        <ele>292.38</ele>
        <time>2014-04-30T13:15:16Z</time>
      </trkpt>
      <trkpt lat="44.19509" lon="1.72342">
        <ele>293.82</ele>
        <time>2014-04-30T13:15:07Z</time>
      </trkpt>
      <trkpt lat="44.19511" lon="1.72317">
        <ele>295.26</ele>
        <time>2014-04-30T13:15:00Z</time>
      </trkpt>
      <trkpt lat="44.19505" lon="1.723">
        <ele>294.3</ele>
        <time>2014-04-30T13:14:52Z</time>
      </trkpt>
      <trkpt lat="44.19492" lon="1.7224">
        <ele>296.7</ele>
        <time>2014-04-30T13:14:32Z</time>
      </trkpt>
      <trkpt lat="44.19493" lon="1.72205">
        <ele>298.63</ele>
        <time>2014-04-30T13:14:21Z</time>
      </trkpt>
      <trkpt lat="44.19496" lon="1.72138">
        <ele>301.51</ele>
        <time>2014-04-30T13:13:59Z</time>
      </trkpt>
      <trkpt lat="44.19505" lon="1.72126">
        <ele>301.51</ele>
        <time>2014-04-30T13:13:54Z</time>
      </trkpt>
      <trkpt lat="44.19496" lon="1.72069">
        <ele>300.55</ele>
        <time>2014-04-30T13:13:37Z</time>
      </trkpt>
      <trkpt lat="44.19496" lon="1.72037">
        <ele>299.59</ele>
        <time>2014-04-30T13:13:27Z</time>
      </trkpt>
      <trkpt lat="44.19495" lon="1.71984">
        <ele>297.67</ele>
        <time>2014-04-30T13:13:11Z</time>
      </trkpt>
      <trkpt lat="44.19494" lon="1.71954">
        <ele>297.67</ele>
        <time>2014-04-30T13:13:00Z</time>
      </trkpt>
      <trkpt lat="44.19503" lon="1.71892">
        <ele>297.67</ele>
        <time>2014-04-30T13:12:40Z</time>
      </trkpt>
      <trkpt lat="44.19512" lon="1.71863">
        <ele>299.11</ele>
        <time>2014-04-30T13:12:32Z</time>
      </trkpt>
      <trkpt lat="44.19521" lon="1.7177">
        <ele>295.26</ele>
        <time>2014-04-30T13:11:56Z</time>
      </trkpt>
      <trkpt lat="44.19525" lon="1.7174">
        <ele>291.9</ele>
        <time>2014-04-30T13:11:42Z</time>
      </trkpt>
      <trkpt lat="44.19532" lon="1.71657">
        <ele>285.65</ele>
        <time>2014-04-30T13:11:04Z</time>
      </trkpt>
      <trkpt lat="44.19531" lon="1.71619">
        <ele>283.73</ele>
        <time>2014-04-30T13:10:46Z</time>
      </trkpt>
      <trkpt lat="44.19519" lon="1.71632">
        <ele>280.84</ele>
        <time>2014-04-30T13:10:36Z</time>
      </trkpt>
      <trkpt lat="44.19515" lon="1.71651">
        <ele>278.44</ele>
        <time>2014-04-30T13:10:26Z</time>
      </trkpt>
      <trkpt lat="44.19489" lon="1.71697">
        <ele>271.71</ele>
        <time>2014-04-30T13:09:57Z</time>
      </trkpt>
      <trkpt lat="44.1947" lon="1.71722">
        <ele>268.35</ele>
        <time>2014-04-30T13:09:39Z</time>
      </trkpt>
      <trkpt lat="44.19445" lon="1.71763">
        <ele>264.02</ele>
        <time>2014-04-30T13:09:03Z</time>
      </trkpt>
      <trkpt lat="44.19433" lon="1.71769">
        <ele>260.65</ele>
        <time>2014-04-30T13:08:50Z</time>
      </trkpt>
      <trkpt lat="44.19423" lon="1.71783">
        <ele>256.33</ele>
        <time>2014-04-30T13:08:24Z</time>
      </trkpt>
      <trkpt lat="44.19416" lon="1.71794">
        <ele>252.96</ele>
        <time>2014-04-30T13:08:15Z</time>
      </trkpt>
      <trkpt lat="44.1939" lon="1.71785">
        <ele>260</ele>
      </trkpt>
      <trkpt lat="44.19385" lon="1.71754">
        <ele>260</ele>
      </trkpt>
      <trkpt lat="44.19382" lon="1.71713">
        <ele>260</ele>
      </trkpt>
      <trkpt lat="44.19389" lon="1.71677">
        <ele>266</ele>
      </trkpt>
      <trkpt lat="44.19393" lon="1.71641">
        <ele>266</ele>
      </trkpt>
      <trkpt lat="44.19397" lon="1.71573">
        <ele>274</ele>
      </trkpt>
      <trkpt lat="44.19387" lon="1.71507">
        <ele>280</ele>
      </trkpt>
      <trkpt lat="44.19379" lon="1.71433">
        <ele>283</ele>
      </trkpt>
      <trkpt lat="44.19359" lon="1.71381">
        <ele>271</ele>
      </trkpt>
      <trkpt lat="44.19338" lon="1.71375">
        <ele>271</ele>
      </trkpt>
      <trkpt lat="44.19326" lon="1.71385">
        <ele>271</ele>
      </trkpt>
      <trkpt lat="44.19336" lon="1.71419">
        <ele>271</ele>
      </trkpt>
      <trkpt lat="44.19331" lon="1.71453">
        <ele>271</ele>
      </trkpt>
      <trkpt lat="44.19323" lon="1.71485">
        <ele>271</ele>
      </trkpt>
      <trkpt lat="44.19321" lon="1.71542">
        <ele>268</ele>
      </trkpt>
      <trkpt lat="44.1931" lon="1.7157">
        <ele>268</ele>
      </trkpt>
      <trkpt lat="44.19292" lon="1.71599">
        <ele>268</ele>
      </trkpt>
      <trkpt lat="44.19282" lon="1.71625">
        <ele>286</ele>
      </trkpt>
      <trkpt lat="44.19272" lon="1.71659">
        <ele>286</ele>
      </trkpt>
      <trkpt lat="44.19252" lon="1.71678">
        <ele>286</ele>
      </trkpt>
      <trkpt lat="44.19209" lon="1.7171">
        <ele>287</ele>
      </trkpt>
      <trkpt lat="44.19192" lon="1.7173">
        <ele>294</ele>
      </trkpt>
      <trkpt lat="44.19153" lon="1.71819">
        <ele>295</ele>
      </trkpt>
      <trkpt lat="44.1914" lon="1.71834">
        <ele>295</ele>
      </trkpt>
      <trkpt lat="44.1913" lon="1.71833">
        <ele>295</ele>
      </trkpt>
      <trkpt lat="44.19145" lon="1.71869">
        <ele>295</ele>
      </trkpt>
      <trkpt lat="44.19154" lon="1.71938">
        <ele>294</ele>
      </trkpt>
      <trkpt lat="44.19146" lon="1.72063">
        <ele>292</ele>
      </trkpt>
      <trkpt lat="44.19143" lon="1.72157">
        <ele>291</ele>
      </trkpt>
      <trkpt lat="44.19137" lon="1.722">
        <ele>291</ele>
      </trkpt>
      <trkpt lat="44.19107" lon="1.72266">
        <ele>297</ele>
      </trkpt>
      <trkpt lat="44.19025" lon="1.72397">
        <ele>297</ele>
      </trkpt>
      <trkpt lat="44.18971" lon="1.72443">
        <ele>297</ele>
      </trkpt>
      <trkpt lat="44.18938" lon="1.72477">
        <ele>302</ele>
      </trkpt>
      <trkpt lat="44.18915" lon="1.72613">
        <ele>301</ele>
      </trkpt>
      <trkpt lat="44.18892" lon="1.72682">
        <ele>301</ele>
      </trkpt>
      <trkpt lat="44.18868" lon="1.72704">
        <ele>315</ele>
      </trkpt>
      <trkpt lat="44.1886" lon="1.72704">
        <ele>315</ele>
      </trkpt>
      <trkpt lat="44.18829" lon="1.7273">
        <ele>310</ele>
      </trkpt>
      <trkpt lat="44.18795" lon="1.72731">
        <ele>310</ele>
      </trkpt>
      <trkpt lat="44.18762" lon="1.72706">
        <ele>316</ele>
      </trkpt>
      <trkpt lat="44.1873" lon="1.72686">
        <ele>316</ele>
      </trkpt>
      <trkpt lat="44.18697" lon="1.72699">
        <ele>310</ele>
      </trkpt>
      <trkpt lat="44.18632" lon="1.7271">
        <ele>307</ele>
      </trkpt>
      <trkpt lat="44.18585" lon="1.72704">
        <ele>306</ele>
      </trkpt>
      <trkpt lat="44.18539" lon="1.72688">
        <ele>302</ele>
      </trkpt>
      <trkpt lat="44.18478" lon="1.72636">
        <ele>302</ele>
      </trkpt>
      <trkpt lat="44.18433" lon="1.72619">
        <ele>303</ele>
      </trkpt>
      <trkpt lat="44.18362" lon="1.72573">
        <ele>300</ele>
      </trkpt>
      <trkpt lat="44.18292" lon="1.72509">
        <ele>301</ele>
      </trkpt>
      <trkpt lat="44.18254" lon="1.72499">
        <ele>299</ele>
      </trkpt>
      <trkpt lat="44.18222" lon="1.72519">
        <ele>299</ele>
      </trkpt>
      <trkpt lat="44.18205" lon="1.72523">
        <ele>298</ele>
      </trkpt>
      <trkpt lat="44.18157" lon="1.72561">
        <ele>301</ele>
      </trkpt>
      <trkpt lat="44.18103" lon="1.7261">
        <ele>299</ele>
      </trkpt>
      <trkpt lat="44.17974" lon="1.72759">
        <ele>301</ele>
      </trkpt>
      <trkpt lat="44.17917" lon="1.72813">
        <ele>297</ele>
      </trkpt>
      <trkpt lat="44.17838" lon="1.72934">
        <ele>295</ele>
      </trkpt>
      <trkpt lat="44.17761" lon="1.73019">
        <ele>294</ele>
      </trkpt>
      <trkpt lat="44.1772" lon="1.73076">
        <ele>297</ele>
      </trkpt>
      <trkpt lat="44.17696" lon="1.73103">
        <ele>296</ele>
      </trkpt>
      <trkpt lat="44.17655" lon="1.7316">
        <ele>297</ele>
      </trkpt>
      <trkpt lat="44.1763" lon="1.73199">
        <ele>297</ele>
      </trkpt>
      <trkpt lat="44.1759" lon="1.73213">
        <ele>298</ele>
      </trkpt>
      <trkpt lat="44.17515" lon="1.73341">
        <ele>298</ele>
      </trkpt>
      <trkpt lat="44.17459" lon="1.73445">
        <ele>299</ele>
      </trkpt>
      <trkpt lat="44.17394" lon="1.7356">
        <ele>297</ele>
      </trkpt>
      <trkpt lat="44.17335" lon="1.7361">
        <ele>296</ele>
      </trkpt>
      <trkpt lat="44.17251" lon="1.73651">
        <ele>299</ele>
      </trkpt>
      <trkpt lat="44.17197" lon="1.73723">
        <ele>300</ele>
      </trkpt>
      <trkpt lat="44.17173" lon="1.73762">
        <ele>300</ele>
      </trkpt>
      <trkpt lat="44.17149" lon="1.73791">
        <ele>300</ele>
      </trkpt>
      <trkpt lat="44.17118" lon="1.73807">
        <ele>293</ele>
      </trkpt>
      <trkpt lat="44.17059" lon="1.73812">
        <ele>293</ele>
      </trkpt>
      <trkpt lat="44.16941" lon="1.73759">
        <ele>293</ele>
      </trkpt>
      <trkpt lat="44.16894" lon="1.73734">
        <ele>293</ele>
      </trkpt>
      <trkpt lat="44.16848" lon="1.73706">
        <ele>297</ele>
      </trkpt>
      <trkpt lat="44.16805" lon="1.73729">
        <ele>291</ele>
      </trkpt>
      <trkpt lat="44.16734" lon="1.73759">
        <ele>293</ele>
      </trkpt>
      <trkpt lat="44.16639" lon="1.73788">
        <ele>294</ele>
      </trkpt>
      <trkpt lat="44.16551" lon="1.73806">
        <ele>291</ele>
      </trkpt>
      <trkpt lat="44.16456" lon="1.7382">
        <ele>301</ele>
      </trkpt>
      <trkpt lat="44.16431" lon="1.73811">
        <ele>301</ele>
      </trkpt>
      <trkpt lat="44.16319" lon="1.73827">
        <ele>307</ele>
      </trkpt>
      <trkpt lat="44.1628" lon="1.73835">
        <ele>310</ele>
      </trkpt>
      <trkpt lat="44.16252" lon="1.73875">
        <ele>310</ele>
      </trkpt>
      <trkpt lat="44.16199" lon="1.73941">
        <ele>310</ele>
      </trkpt>
      <trkpt lat="44.16177" lon="1.73974">
        <ele>307</ele>
      </trkpt>
      <trkpt lat="44.16179" lon="1.73972">
        <ele>307</ele>
      </trkpt>
      <trkpt lat="44.1616" lon="1.74018">
        <ele>307</ele>
      </trkpt>
      <trkpt lat="44.16117" lon="1.74089">
        <ele>311</ele>
      </trkpt>
      <trkpt lat="44.16074" lon="1.74202">
        <ele>309</ele>
      </trkpt>
      <trkpt lat="44.16051" lon="1.7425">
        <ele>305</ele>
      </trkpt>
      <trkpt lat="44.16011" lon="1.74305">
        <ele>310</ele>
      </trkpt>
      <trkpt lat="44.15997" lon="1.74334">
        <ele>310</ele>
      </trkpt>
      <trkpt lat="44.15961" lon="1.74393">
        <ele>304</ele>
      </trkpt>
      <trkpt lat="44.15883" lon="1.74443">
        <ele>310</ele>
      </trkpt>
      <trkpt lat="44.15853" lon="1.74484">
        <ele>315</ele>
      </trkpt>
      <trkpt lat="44.1586" lon="1.74573">
        <ele>311</ele>
      </trkpt>
      <trkpt lat="44.15878" lon="1.74749">
        <ele>310</ele>
      </trkpt>
      <trkpt lat="44.15889" lon="1.74831">
        <ele>310</ele>
      </trkpt>
      <trkpt lat="44.1589" lon="1.74882">
        <ele>310</ele>
      </trkpt>
      <trkpt lat="44.15896" lon="1.74913">
        <ele>310</ele>
      </trkpt>
      <trkpt lat="44.15884" lon="1.75026">
        <ele>308</ele>
      </trkpt>
      <trkpt lat="44.15867" lon="1.75081">
        <ele>297</ele>
      </trkpt>
      <trkpt lat="44.15853" lon="1.75107">
        <ele>297</ele>
      </trkpt>
      <trkpt lat="44.15829" lon="1.75132">
        <ele>288</ele>
      </trkpt>
      <trkpt lat="44.15821" lon="1.75146">
        <ele>288</ele>
      </trkpt>
      <trkpt lat="44.15814" lon="1.7515">
        <ele>288</ele>
      </trkpt>
      <trkpt lat="44.1581" lon="1.75146">
        <ele>288</ele>
      </trkpt>
      <trkpt lat="44.15772" lon="1.75153">
        <ele>267</ele>
      </trkpt>
      <trkpt lat="44.1576" lon="1.7516">
        <ele>267</ele>
      </trkpt>
      <trkpt lat="44.15743" lon="1.75148">
        <ele>267</ele>
      </trkpt>
      <trkpt lat="44.1573" lon="1.75131">
        <ele>267</ele>
      </trkpt>
      <trkpt lat="44.15724" lon="1.75129">
        <ele>267</ele>
      </trkpt>
      <trkpt lat="44.15702" lon="1.75111">
        <ele>248</ele>
      </trkpt>
      <trkpt lat="44.15695" lon="1.75099">
        <ele>248</ele>
      </trkpt>
      <trkpt lat="44.1568" lon="1.75092">
        <ele>248</ele>
      </trkpt>
      <trkpt lat="44.15672" lon="1.75082">
        <ele>248</ele>
      </trkpt>
      <trkpt lat="44.15658" lon="1.75069">
        <ele>248</ele>
      </trkpt>
      <trkpt lat="44.15649" lon="1.7507">
        <ele>248</ele>
      </trkpt>
      <trkpt lat="44.15642" lon="1.75067">
        <ele>248</ele>
      </trkpt>
      <trkpt lat="44.15627" lon="1.75068">
        <ele>248</ele>
      </trkpt>
      <trkpt lat="44.15615" lon="1.75062">
        <ele>215</ele>
      </trkpt>
      <trkpt lat="44.15595" lon="1.75065">
        <ele>215</ele>
      </trkpt>
      <trkpt lat="44.15576" lon="1.75059">
        <ele>215</ele>
      </trkpt>
      <trkpt lat="44.15559" lon="1.75059">
        <ele>215</ele>
      </trkpt>
      <trkpt lat="44.15531" lon="1.75046">
        <ele>185</ele>
      </trkpt>
      <trkpt lat="44.15506" lon="1.75046">
        <ele>185</ele>
      </trkpt>
      <trkpt lat="44.15477" lon="1.7502">
        <ele>207</ele>
      </trkpt>
      <trkpt lat="44.15418" lon="1.74987">
        <ele>170</ele>
      </trkpt>
      <trkpt lat="44.15399" lon="1.74972">
        <ele>170</ele>
      </trkpt>
      <trkpt lat="44.15383" lon="1.74967">
        <ele>170</ele>
      </trkpt>
      <trkpt lat="44.15352" lon="1.74953">
        <ele>155</ele>
      </trkpt>
      <trkpt lat="44.1534" lon="1.74961">
        <ele>139</ele>
      </trkpt>
      <trkpt lat="44.1534" lon="1.74997">
        <ele>139</ele>
      </trkpt>
      <trkpt lat="44.15345" lon="1.75029">
        <ele>139</ele>
      </trkpt>
      <trkpt lat="44.15346" lon="1.75045">
        <ele>131</ele>
      </trkpt>
      <trkpt lat="44.15347" lon="1.75045">
        <ele>131</ele>
      </trkpt>
      <trkpt lat="44.15342" lon="1.75059">
        <ele>131</ele>
      </trkpt>
      <trkpt lat="44.15351" lon="1.75111">
        <ele>131</ele>
      </trkpt>
      <trkpt lat="44.15357" lon="1.75168">
        <ele>127</ele>
      </trkpt>
      <trkpt lat="44.15346" lon="1.75218">
        <ele>124</ele>
      </trkpt>
      <trkpt lat="44.15251" lon="1.75282">
        <ele>123</ele>
      </trkpt>
      <trkpt lat="44.15239" lon="1.75313">
        <ele>123</ele>
      </trkpt>
      <trkpt lat="44.15178" lon="1.75314">
        <ele>125</ele>
      </trkpt>
      <trkpt lat="44.15131" lon="1.7533">
        <ele>125</ele>
      </trkpt>
      <trkpt lat="44.15096" lon="1.75372">
        <ele>126</ele>
      </trkpt>
      <trkpt lat="44.15056" lon="1.75444">
        <ele>128</ele>
      </trkpt>
      <trkpt lat="44.15042" lon="1.75504">
        <ele>131</ele>
      </trkpt>
      <trkpt lat="44.15018" lon="1.75588">
        <ele>126</ele>
      </trkpt>
      <trkpt lat="44.14994" lon="1.75631">
        <ele>129</ele>
      </trkpt>
      <trkpt lat="44.14985" lon="1.75655">
        <ele>129</ele>
      </trkpt>
      <trkpt lat="44.14991" lon="1.75689">
        <ele>129</ele>
      </trkpt>
      <trkpt lat="44.15019" lon="1.75705">
        <ele>129</ele>
      </trkpt>
      <trkpt lat="44.15037" lon="1.75705">
        <ele>129</ele>
      </trkpt>
      <trkpt lat="44.15051" lon="1.75691">
        <ele>134</ele>
      </trkpt>
      <trkpt lat="44.15075" lon="1.75693">
        <ele>134</ele>
      </trkpt>
      <trkpt lat="44.15125" lon="1.75663">
        <ele>139</ele>
      </trkpt>
      <trkpt lat="44.1516" lon="1.75673">
        <ele>139</ele>
      </trkpt>
      <trkpt lat="44.15178" lon="1.75672">
        <ele>139</ele>
      </trkpt>
      <trkpt lat="44.15177" lon="1.75673">
        <ele>139</ele>
      </trkpt>
      <trkpt lat="44.15177" lon="1.75682">
        <ele>139</ele>
      </trkpt>
      <trkpt lat="44.15185" lon="1.757">
        <ele>139</ele>
      </trkpt>
      <trkpt lat="44.15214" lon="1.75749">
        <ele>139</ele>
      </trkpt>
      <trkpt lat="44.15223" lon="1.75772">
        <ele>139</ele>
      </trkpt>
      <trkpt lat="44.15226" lon="1.75771">
        <ele>139</ele>
      </trkpt>
      <trkpt lat="44.1526" lon="1.75858">
        <ele>145</ele>
      </trkpt>
      <trkpt lat="44.15293" lon="1.75928">
        <ele>154</ele>
      </trkpt>
      <trkpt lat="44.1531" lon="1.75957">
        <ele>154</ele>
      </trkpt>
      <trkpt lat="44.15329" lon="1.75988">
        <ele>167</ele>
      </trkpt>
      <trkpt lat="44.15348" lon="1.76013">
        <ele>167</ele>
      </trkpt>
      <trkpt lat="44.15391" lon="1.76067">
        <ele>177</ele>
      </trkpt>
      <trkpt lat="44.15422" lon="1.76117">
        <ele>177</ele>
      </trkpt>
      <trkpt lat="44.15441" lon="1.76139">
        <ele>192</ele>
      </trkpt>
      <trkpt lat="44.15468" lon="1.76163">
        <ele>186</ele>
      </trkpt>
      <trkpt lat="44.15482" lon="1.76188">
        <ele>186</ele>
      </trkpt>
      <trkpt lat="44.15503" lon="1.76246">
        <ele>199</ele>
      </trkpt>
      <trkpt lat="44.1552" lon="1.76276">
        <ele>199</ele>
      </trkpt>
      <trkpt lat="44.15546" lon="1.76308">
        <ele>204</ele>
      </trkpt>
      <trkpt lat="44.1557" lon="1.76354">
        <ele>204</ele>
      </trkpt>
      <trkpt lat="44.15585" lon="1.76392">
        <ele>215</ele>
      </trkpt>
      <trkpt lat="44.15612" lon="1.76455">
        <ele>215</ele>
      </trkpt>
      <trkpt lat="44.15647" lon="1.76498">
        <ele>222</ele>
      </trkpt>
      <trkpt lat="44.15658" lon="1.76524">
        <ele>222</ele>
      </trkpt>
      <trkpt lat="44.15702" lon="1.76562">
        <ele>243</ele>
      </trkpt>
      <trkpt lat="44.15712" lon="1.76576">
        <ele>226</ele>
      </trkpt>
      <trkpt lat="44.15724" lon="1.76606">
        <ele>226</ele>
      </trkpt>
      <trkpt lat="44.15726" lon="1.76618">
        <ele>226</ele>
      </trkpt>
      <trkpt lat="44.15727" lon="1.76642">
        <ele>243</ele>
      </trkpt>
      <trkpt lat="44.15733" lon="1.76668">
        <ele>243</ele>
      </trkpt>
      <trkpt lat="44.15734" lon="1.76734">
        <ele>258</ele>
      </trkpt>
      <trkpt lat="44.15736" lon="1.76783">
        <ele>258</ele>
      </trkpt>
      <trkpt lat="44.15742" lon="1.76832">
        <ele>273</ele>
      </trkpt>
      <trkpt lat="44.15751" lon="1.76847">
        <ele>273</ele>
      </trkpt>
      <trkpt lat="44.15793" lon="1.76818">
        <ele>289</ele>
      </trkpt>
      <trkpt lat="44.15844" lon="1.76788">
        <ele>268</ele>
      </trkpt>
      <trkpt lat="44.15892" lon="1.7675">
        <ele>290</ele>
      </trkpt>
      <trkpt lat="44.15936" lon="1.76718">
        <ele>290</ele>
      </trkpt>
      <trkpt lat="44.15967" lon="1.76719">
        <ele>299</ele>
      </trkpt>
      <trkpt lat="44.15989" lon="1.76736">
        <ele>299</ele>
      </trkpt>
      <trkpt lat="44.16006" lon="1.76767">
        <ele>299</ele>
      </trkpt>
      <trkpt lat="44.16014" lon="1.76806">
        <ele>310</ele>
      </trkpt>
      <trkpt lat="44.16033" lon="1.76983">
        <ele>321</ele>
      </trkpt>
      <trkpt lat="44.16037" lon="1.76997">
        <ele>321</ele>
      </trkpt>
      <trkpt lat="44.16031" lon="1.76988">
        <ele>324.8</ele>
      </trkpt>
      <trkpt lat="44.16068" lon="1.77242">
        <ele>331.09</ele>
      </trkpt>
      <trkpt lat="44.16071" lon="1.77406">
        <ele>329.05</ele>
      </trkpt>
      <trkpt lat="44.16075" lon="1.7759">
        <ele>323.91</ele>
      </trkpt>
      <trkpt lat="44.16111" lon="1.77712">
        <ele>321.39</ele>
      </trkpt>
      <trkpt lat="44.16131" lon="1.77772">
        <ele>320.48</ele>
      </trkpt>
      <trkpt lat="44.16166" lon="1.77825">
        <ele>319.67</ele>
      </trkpt>
      <trkpt lat="44.16207" lon="1.77888">
        <ele>321.31</ele>
      </trkpt>
      <trkpt lat="44.16278" lon="1.77974">
        <ele>322.84</ele>
      </trkpt>
      <trkpt lat="44.1631" lon="1.77932">
        <ele>322.47</ele>
      </trkpt>
      <trkpt lat="44.16344" lon="1.77892">
        <ele>322.57</ele>
      </trkpt>
      <trkpt lat="44.16384" lon="1.77867">
        <ele>321.42</ele>
      </trkpt>
      <trkpt lat="44.16454" lon="1.77818">
        <ele>316.84</ele>
      </trkpt>
      <trkpt lat="44.16539" lon="1.77726">
        <ele>310.81</ele>
      </trkpt>
      <trkpt lat="44.16606" lon="1.77619">
        <ele>306.83</ele>
      </trkpt>
      <trkpt lat="44.16663" lon="1.77553">
        <ele>306</ele>
      </trkpt>
      <trkpt lat="44.16695" lon="1.77553">
        <ele>306</ele>
      </trkpt>
      <trkpt lat="44.16708" lon="1.77558">
        <ele>306</ele>
      </trkpt>
      <trkpt lat="44.16715" lon="1.77615">
        <ele>305.55</ele>
      </trkpt>
      <trkpt lat="44.16736" lon="1.77664">
        <ele>305.07</ele>
      </trkpt>
      <trkpt lat="44.168" lon="1.77721">
        <ele>307.84</ele>
      </trkpt>
      <trkpt lat="44.16791" lon="1.77782">
        <ele>309.25</ele>
      </trkpt>
      <trkpt lat="44.16787" lon="1.77901">
        <ele>315.5</ele>
      </trkpt>
      <trkpt lat="44.16799" lon="1.77972">
        <ele>319.7</ele>
      </trkpt>
      <trkpt lat="44.1679" lon="1.78013">
        <ele>321.03</ele>
      </trkpt>
      <trkpt lat="44.16767" lon="1.78042">
        <ele>320.9</ele>
      </trkpt>
      <trkpt lat="44.16741" lon="1.78086">
        <ele>320.92</ele>
      </trkpt>
      <trkpt lat="44.16752" lon="1.78126">
        <ele>322.97</ele>
      </trkpt>
      <trkpt lat="44.16788" lon="1.78167">
        <ele>327.17</ele>
      </trkpt>
      <trkpt lat="44.16809" lon="1.78179">
        <ele>329.06</ele>
      </trkpt>
      <trkpt lat="44.16829" lon="1.7821">
        <ele>331.35</ele>
      </trkpt>
      <trkpt lat="44.16829" lon="1.7821">
        <ele>331.35</ele>
      </trkpt>
      <trkpt lat="44.16789" lon="1.78323">
        <ele>332.16</ele>
      </trkpt>
      <trkpt lat="44.16732" lon="1.78493">
        <ele>331</ele>
      </trkpt>
      <trkpt lat="44.16695" lon="1.78623">
        <ele>326.54</ele>
      </trkpt>
      <trkpt lat="44.16737" lon="1.78745">
        <ele>326.29</ele>
      </trkpt>
      <trkpt lat="44.16794" lon="1.78869">
        <ele>324.09</ele>
      </trkpt>
      <trkpt lat="44.1686" lon="1.78965">
        <ele>325.54</ele>
      </trkpt>
      <trkpt lat="44.16919" lon="1.79042">
        <ele>330.92</ele>
      </trkpt>
      <trkpt lat="44.1693" lon="1.7917">
        <ele>330.99</ele>
      </trkpt>
      <trkpt lat="44.1696" lon="1.79349">
        <ele>338.63</ele>
      </trkpt>
      <trkpt lat="44.16974" lon="1.79477">
        <ele>342.26</ele>
      </trkpt>
      <trkpt lat="44.16973" lon="1.79523">
        <ele>342.28</ele>
      </trkpt>
      <trkpt lat="44.16995" lon="1.79536">
        <ele>343.55</ele>
      </trkpt>
      <trkpt lat="44.17016" lon="1.7956">
        <ele>345</ele>
      </trkpt>
      <trkpt lat="44.17036" lon="1.79657">
        <ele>347.95</ele>
      </trkpt>
      <trkpt lat="44.17035" lon="1.79769">
        <ele>349.53</ele>
      </trkpt>
      <trkpt lat="44.17029" lon="1.7991">
        <ele>349.85</ele>
      </trkpt>
      <trkpt lat="44.17034" lon="1.80014">
        <ele>350.56</ele>
      </trkpt>
      <trkpt lat="44.17075" lon="1.80098">
        <ele>351.23</ele>
      </trkpt>
      <trkpt lat="44.171" lon="1.80158">
        <ele>352.46</ele>
      </trkpt>
      <trkpt lat="44.1714" lon="1.80269">
        <ele>355.63</ele>
      </trkpt>
      <trkpt lat="44.17198" lon="1.80398">
        <ele>363.12</ele>
      </trkpt>
      <trkpt lat="44.17291" lon="1.80388">
        <ele>362.53</ele>
      </trkpt>
      <trkpt lat="44.17414" lon="1.80385">
        <ele>358.54</ele>
      </trkpt>
      <trkpt lat="44.17494" lon="1.80393">
        <ele>352.88</ele>
      </trkpt>
      <trkpt lat="44.17531" lon="1.80398">
        <ele>351.13</ele>
      </trkpt>
      <trkpt lat="44.17555" lon="1.80413">
        <ele>350.02</ele>
      </trkpt>
      <trkpt lat="44.17573" lon="1.80445">
        <ele>351.16</ele>
      </trkpt>
      <trkpt lat="44.17578" lon="1.80486">
        <ele>353.06</ele>
      </trkpt>
      <trkpt lat="44.17627" lon="1.80526">
        <ele>358.92</ele>
      </trkpt>
      <trkpt lat="44.17645" lon="1.80541">
        <ele>361.02</ele>
      </trkpt>
      <trkpt lat="44.17662" lon="1.80554">
        <ele>361.52</ele>
      </trkpt>
      <trkpt lat="44.17683" lon="1.80568">
        <ele>361.32</ele>
      </trkpt>
      <trkpt lat="44.17709" lon="1.80582">
        <ele>360.61</ele>
      </trkpt>
      <trkpt lat="44.17749" lon="1.80608">
        <ele>359.24</ele>
      </trkpt>
      <trkpt lat="44.17758" lon="1.8066">
        <ele>359.08</ele>
      </trkpt>
      <trkpt lat="44.17758" lon="1.8066">
        <ele>359.08</ele>
      </trkpt>
      <trkpt lat="44.17773" lon="1.80767">
        <ele>360.23</ele>
      </trkpt>
      <trkpt lat="44.17782" lon="1.80805">
        <ele>360.96</ele>
      </trkpt>
      <trkpt lat="44.17808" lon="1.80862">
        <ele>362.48</ele>
      </trkpt>
      <trkpt lat="44.17839" lon="1.80895">
        <ele>361.94</ele>
      </trkpt>
      <trkpt lat="44.17858" lon="1.80924">
        <ele>361.56</ele>
      </trkpt>
      <trkpt lat="44.17857" lon="1.80977">
        <ele>360.99</ele>
      </trkpt>
      <trkpt lat="44.17885" lon="1.81004">
        <ele>358.7</ele>
      </trkpt>
      <trkpt lat="44.17947" lon="1.80988">
        <ele>354.94</ele>
      </trkpt>
      <trkpt lat="44.18069" lon="1.80941">
        <ele>354.6</ele>
      </trkpt>
      <trkpt lat="44.18094" lon="1.80925">
        <ele>355.83</ele>
      </trkpt>
      <trkpt lat="44.18116" lon="1.80894">
        <ele>357.01</ele>
      </trkpt>
      <trkpt lat="44.18207" lon="1.80774">
        <ele>359.62</ele>
      </trkpt>
      <trkpt lat="44.18314" lon="1.80628">
        <ele>362.23</ele>
      </trkpt>
      <trkpt lat="44.18124" lon="1.80391">
        <ele>355.66</ele>
      </trkpt>
      <trkpt lat="44.18146" lon="1.80334">
        <ele>356.27</ele>
      </trkpt>
      <trkpt lat="44.18181" lon="1.80275">
        <ele>357.78</ele>
      </trkpt>
      <trkpt lat="44.1818" lon="1.80204">
        <ele>357.2</ele>
      </trkpt>
      <trkpt lat="44.1819" lon="1.80121">
        <ele>355.2</ele>
      </trkpt>
      <trkpt lat="44.1818" lon="1.80058">
        <ele>353.12</ele>
      </trkpt>
      <trkpt lat="44.18158" lon="1.7995">
        <ele>351.63</ele>
      </trkpt>
      <trkpt lat="44.18155" lon="1.79887">
        <ele>350.95</ele>
      </trkpt>
      <trkpt lat="44.18186" lon="1.7978">
        <ele>351.53</ele>
      </trkpt>
      <trkpt lat="44.1819" lon="1.7969">
        <ele>351.48</ele>
      </trkpt>
      <trkpt lat="44.18174" lon="1.79552">
        <ele>350.8</ele>
      </trkpt>
      <trkpt lat="44.1818" lon="1.79373">
        <ele>343.59</ele>
      </trkpt>
      <trkpt lat="44.18179" lon="1.79244">
        <ele>339.06</ele>
      </trkpt>
      <trkpt lat="44.18187" lon="1.79162">
        <ele>336.76</ele>
      </trkpt>
      <trkpt lat="44.18209" lon="1.79075">
        <ele>337.12</ele>
      </trkpt>
      <trkpt lat="44.18191" lon="1.79005">
        <ele>342.89</ele>
      </trkpt>
      <trkpt lat="44.18151" lon="1.7895">
        <ele>348.29</ele>
      </trkpt>
      <trkpt lat="44.18139" lon="1.78908">
        <ele>350.1</ele>
      </trkpt>
      <trkpt lat="44.18126" lon="1.78804">
        <ele>353.56</ele>
      </trkpt>
      <trkpt lat="44.18122" lon="1.78715">
        <ele>354.76</ele>
      </trkpt>
      <trkpt lat="44.18102" lon="1.78662">
        <ele>354.85</ele>
      </trkpt>
      <trkpt lat="44.1807" lon="1.78616">
        <ele>351.88</ele>
      </trkpt>
      <trkpt lat="44.18036" lon="1.78592">
        <ele>350.91</ele>
      </trkpt>
      <trkpt lat="44.18015" lon="1.78501">
        <ele>348.31</ele>
      </trkpt>
      <trkpt lat="44.17985" lon="1.78443">
        <ele>348.29</ele>
      </trkpt>
      <trkpt lat="44.1796" lon="1.78413">
        <ele>349.06</ele>
      </trkpt>
      <trkpt lat="44.17918" lon="1.78352">
        <ele>349.85</ele>
      </trkpt>
      <trkpt lat="44.17859" lon="1.78262">
        <ele>349.96</ele>
      </trkpt>
      <trkpt lat="44.1781" lon="1.7826">
        <ele>348.4</ele>
      </trkpt>
      <trkpt lat="44.1771" lon="1.78239">
        <ele>340.57</ele>
      </trkpt>
      <trkpt lat="44.17656" lon="1.78212">
        <ele>334.99</ele>
      </trkpt>
      <trkpt lat="44.17634" lon="1.78187">
        <ele>332.04</ele>
      </trkpt>
      <trkpt lat="44.17577" lon="1.7817">
        <ele>325.93</ele>
      </trkpt>
      <trkpt lat="44.17515" lon="1.78155">
        <ele>323.37</ele>
      </trkpt>
      <trkpt lat="44.17477" lon="1.78131">
        <ele>325.56</ele>
      </trkpt>
      <trkpt lat="44.17451" lon="1.78085">
        <ele>328.18</ele>
      </trkpt>
      <trkpt lat="44.17425" lon="1.78061">
        <ele>329.3</ele>
      </trkpt>
      <trkpt lat="44.17344" lon="1.78154">
        <ele>331.54</ele>
      </trkpt>
      <trkpt lat="44.17334" lon="1.78092">
        <ele>330.8</ele>
      </trkpt>
      <trkpt lat="44.17319" lon="1.78067">
        <ele>330.05</ele>
      </trkpt>
      <trkpt lat="44.17302" lon="1.78033">
        <ele>328.75</ele>
      </trkpt>
      <trkpt lat="44.17274" lon="1.77978">
        <ele>324.09</ele>
      </trkpt>
      <trkpt lat="44.17209" lon="1.77957">
        <ele>309.8</ele>
      </trkpt>
      <trkpt lat="44.17182" lon="1.77953">
        <ele>305.49</ele>
      </trkpt>
      <trkpt lat="44.17163" lon="1.77855">
        <ele>314.58</ele>
      </trkpt>
      <trkpt lat="44.17109" lon="1.77756">
        <ele>321.74</ele>
      </trkpt>
      <trkpt lat="44.17054" lon="1.77613">
        <ele>316.41</ele>
      </trkpt>
      <trkpt lat="44.17021" lon="1.77449">
        <ele>306.15</ele>
      </trkpt>
      <trkpt lat="44.16991" lon="1.7739">
        <ele>304.73</ele>
      </trkpt>
      <trkpt lat="44.16953" lon="1.77375">
        <ele>304.07</ele>
      </trkpt>
      <trkpt lat="44.16874" lon="1.77357">
        <ele>304.37</ele>
      </trkpt>
      <trkpt lat="44.16804" lon="1.77339">
        <ele>306.05</ele>
      </trkpt>
      <trkpt lat="44.16772" lon="1.77346">
        <ele>306.7</ele>
      </trkpt>
      <trkpt lat="44.16761" lon="1.77359">
        <ele>306.82</ele>
      </trkpt>
      <trkpt lat="44.16718" lon="1.77286">
        <ele>310.78</ele>
      </trkpt>
      <trkpt lat="44.16671" lon="1.77227">
        <ele>315.13</ele>
      </trkpt>
      <trkpt lat="44.16601" lon="1.7716">
        <ele>322.12</ele>
      </trkpt>
      <trkpt lat="44.16556" lon="1.77162">
        <ele>322.97</ele>
      </trkpt>
      <trkpt lat="44.1649" lon="1.77157">
        <ele>324.1</ele>
      </trkpt>
      <trkpt lat="44.16373" lon="1.77139">
        <ele>329.12</ele>
      </trkpt>
      <trkpt lat="44.16294" lon="1.77142">
        <ele>329.55</ele>
      </trkpt>
      <trkpt lat="44.16347" lon="1.77098">
        <ele>326</ele>
      </trkpt>
      <trkpt lat="44.16362" lon="1.77078">
        <ele>326</ele>
      </trkpt>
      <trkpt lat="44.16422" lon="1.77057">
        <ele>324</ele>
      </trkpt>
      <trkpt lat="44.1646" lon="1.77048">
        <ele>327</ele>
      </trkpt>
      <trkpt lat="44.16477" lon="1.77045">
        <ele>327</ele>
      </trkpt>
      <trkpt lat="44.16498" lon="1.77037">
        <ele>306</ele>
      </trkpt>
      <trkpt lat="44.1651" lon="1.77028">
        <ele>306</ele>
      </trkpt>
      <trkpt lat="44.1652" lon="1.77014">
        <ele>306</ele>
      </trkpt>
      <trkpt lat="44.16548" lon="1.76998">
        <ele>324</ele>
      </trkpt>
      <trkpt lat="44.16569" lon="1.76975">
        <ele>324</ele>
      </trkpt>
      <trkpt lat="44.16574" lon="1.76972">
        <ele>324</ele>
      </trkpt>
      <trkpt lat="44.1659" lon="1.76946">
        <ele>310</ele>
      </trkpt>
      <trkpt lat="44.1661" lon="1.76908">
        <ele>310</ele>
      </trkpt>
      <trkpt lat="44.16626" lon="1.76857">
        <ele>331</ele>
      </trkpt>
      <trkpt lat="44.16631" lon="1.7683">
        <ele>331</ele>
      </trkpt>
      <trkpt lat="44.16631" lon="1.76821">
        <ele>331</ele>
      </trkpt>
      <trkpt lat="44.16627" lon="1.76804">
        <ele>331</ele>
      </trkpt>
      <trkpt lat="44.16631" lon="1.76756">
        <ele>329</ele>
      </trkpt>
      <trkpt lat="44.16627" lon="1.76728">
        <ele>323.25</ele>
      </trkpt>
      <trkpt lat="44.16682" lon="1.76728">
        <ele>332.95</ele>
      </trkpt>
      <trkpt lat="44.16794" lon="1.76714">
        <ele>331.06</ele>
      </trkpt>
      <trkpt lat="44.16835" lon="1.7672">
        <ele>330.28</ele>
      </trkpt>
      <trkpt lat="44.16882" lon="1.76748">
        <ele>331.73</ele>
      </trkpt>
      <trkpt lat="44.16929" lon="1.76772">
        <ele>331.59</ele>
      </trkpt>
      <trkpt lat="44.16959" lon="1.76753">
        <ele>331.86</ele>
      </trkpt>
      <trkpt lat="44.16994" lon="1.76725">
        <ele>331.04</ele>
      </trkpt>
      <trkpt lat="44.17037" lon="1.76721">
        <ele>329.26</ele>
      </trkpt>
      <trkpt lat="44.17049" lon="1.76802">
        <ele>329.87</ele>
      </trkpt>
      <trkpt lat="44.17043" lon="1.76893">
        <ele>327.04</ele>
      </trkpt>
      <trkpt lat="44.17055" lon="1.77053">
        <ele>315.2</ele>
      </trkpt>
      <trkpt lat="44.17069" lon="1.77155">
        <ele>312.45</ele>
      </trkpt>
      <trkpt lat="44.17091" lon="1.7717">
        <ele>311.96</ele>
      </trkpt>
      <trkpt lat="44.17161" lon="1.7722">
        <ele>307.03</ele>
      </trkpt>
      <trkpt lat="44.17222" lon="1.77288">
        <ele>300</ele>
      </trkpt>
      <trkpt lat="44.17256" lon="1.77325">
        <ele>294.62</ele>
      </trkpt>
      <trkpt lat="44.17306" lon="1.77362">
        <ele>285.22</ele>
      </trkpt>
      <trkpt lat="44.17369" lon="1.77417">
        <ele>268.19</ele>
      </trkpt>
      <trkpt lat="44.17416" lon="1.7747">
        <ele>259.71</ele>
      </trkpt>
      <trkpt lat="44.17454" lon="1.77543">
        <ele>259.75</ele>
      </trkpt>
      <trkpt lat="44.17585" lon="1.77617">
        <ele>288.23</ele>
      </trkpt>
      <trkpt lat="44.17701" lon="1.77628">
        <ele>314.31</ele>
      </trkpt>
      <trkpt lat="44.17746" lon="1.7759">
        <ele>321.35</ele>
      </trkpt>
      <trkpt lat="44.17787" lon="1.77584">
        <ele>323.97</ele>
      </trkpt>
      <trkpt lat="44.17832" lon="1.77602">
        <ele>322.41</ele>
      </trkpt>
      <trkpt lat="44.17907" lon="1.77571">
        <ele>328.12</ele>
      </trkpt>
      <trkpt lat="44.17925" lon="1.77517">
        <ele>328.49</ele>
      </trkpt>
      <trkpt lat="44.17933" lon="1.77462">
        <ele>323.95</ele>
      </trkpt>
      <trkpt lat="44.17978" lon="1.77451">
        <ele>318.1</ele>
      </trkpt>
      <trkpt lat="44.1801" lon="1.77447">
        <ele>317.2</ele>
      </trkpt>
      <trkpt lat="44.1803" lon="1.77438">
        <ele>312</ele>
      </trkpt>
      <trkpt lat="44.18047" lon="1.77424">
        <ele>311.8</ele>
      </trkpt>
      <trkpt lat="44.18036" lon="1.77416">
        <ele>308.1</ele>
      </trkpt>
      <trkpt lat="44.18028" lon="1.77415">
        <ele>306.7</ele>
      </trkpt>
      <trkpt lat="44.1801" lon="1.77403">
        <ele>304.2</ele>
      </trkpt>
      <trkpt lat="44.1799" lon="1.77382">
        <ele>302.1</ele>
      </trkpt>
      <trkpt lat="44.17989" lon="1.77375">
        <ele>301.1</ele>
      </trkpt>
      <trkpt lat="44.17983" lon="1.77345">
        <ele>297.9</ele>
      </trkpt>
      <trkpt lat="44.17991" lon="1.77306">
        <ele>292.7</ele>
      </trkpt>
      <trkpt lat="44.18014" lon="1.77207">
        <ele>283.89</ele>
      </trkpt>
      <trkpt lat="44.18032" lon="1.77131">
        <ele>279.48</ele>
      </trkpt>
      <trkpt lat="44.18038" lon="1.77034">
        <ele>265.6</ele>
      </trkpt>
      <trkpt lat="44.18048" lon="1.76965">
        <ele>259.2</ele>
      </trkpt>
      <trkpt lat="44.18042" lon="1.76944">
        <ele>257.9</ele>
      </trkpt>
      <trkpt lat="44.18046" lon="1.76871">
        <ele>251.3</ele>
      </trkpt>
      <trkpt lat="44.18051" lon="1.76791">
        <ele>244.1</ele>
      </trkpt>
      <trkpt lat="44.18072" lon="1.76783">
        <ele>242</ele>
      </trkpt>
      <trkpt lat="44.18081" lon="1.76768">
        <ele>239.7</ele>
      </trkpt>
      <trkpt lat="44.18088" lon="1.76757">
        <ele>239.6</ele>
      </trkpt>
      <trkpt lat="44.18107" lon="1.76723">
        <ele>239.1</ele>
      </trkpt>
      <trkpt lat="44.18125" lon="1.76685">
        <ele>241.29</ele>
      </trkpt>
      <trkpt lat="44.18197" lon="1.76639">
        <ele>234.2</ele>
      </trkpt>
      <trkpt lat="44.18214" lon="1.76602">
        <ele>232.4</ele>
      </trkpt>
      <trkpt lat="44.18205" lon="1.76566">
        <ele>228.5</ele>
      </trkpt>
      <trkpt lat="44.18205" lon="1.76555">
        <ele>227.5</ele>
      </trkpt>
      <trkpt lat="44.18206" lon="1.7649">
        <ele>222.4</ele>
      </trkpt>
      <trkpt lat="44.18209" lon="1.76465">
        <ele>221.2</ele>
      </trkpt>
      <trkpt lat="44.18223" lon="1.76407">
        <ele>217.1</ele>
      </trkpt>
      <trkpt lat="44.18228" lon="1.76393">
        <ele>216.1</ele>
      </trkpt>
      <trkpt lat="44.1826" lon="1.7626">
        <ele>204.4</ele>
      </trkpt>
      <trkpt lat="44.18274" lon="1.76169">
        <ele>197.5</ele>
      </trkpt>
      <trkpt lat="44.18275" lon="1.76112">
        <ele>192.4</ele>
      </trkpt>
      <trkpt lat="44.18279" lon="1.76053">
        <ele>186.8</ele>
      </trkpt>
      <trkpt lat="44.18301" lon="1.76018">
        <ele>187.79</ele>
      </trkpt>
      <trkpt lat="44.18306" lon="1.75984">
        <ele>183.7</ele>
      </trkpt>
      <trkpt lat="44.18271" lon="1.75921">
        <ele>174.6</ele>
      </trkpt>
      <trkpt lat="44.18244" lon="1.75888">
        <ele>176.6</ele>
      </trkpt>
      <trkpt lat="44.18211" lon="1.75866">
        <ele>182.49</ele>
      </trkpt>
      <trkpt lat="44.1818" lon="1.75815">
        <ele>175.3</ele>
      </trkpt>
      <trkpt lat="44.18151" lon="1.75773">
        <ele>172.9</ele>
      </trkpt>
      <trkpt lat="44.18104" lon="1.7572">
        <ele>171.91</ele>
      </trkpt>
      <trkpt lat="44.18074" lon="1.7568">
        <ele>163.2</ele>
      </trkpt>
      <trkpt lat="44.18036" lon="1.75666">
        <ele>165.26</ele>
      </trkpt>
      <trkpt lat="44.17997" lon="1.75657">
        <ele>159.1</ele>
      </trkpt>
      <trkpt lat="44.17984" lon="1.75654">
        <ele>157.5</ele>
      </trkpt>
      <trkpt lat="44.17933" lon="1.75655">
        <ele>162.46</ele>
      </trkpt>
      <trkpt lat="44.17921" lon="1.75633">
        <ele>154.9</ele>
      </trkpt>
      <trkpt lat="44.17916" lon="1.75612">
        <ele>156.2</ele>
      </trkpt>
      <trkpt lat="44.17928" lon="1.75535">
        <ele>155.3</ele>
      </trkpt>
      <trkpt lat="44.1798" lon="1.75585">
        <ele>151</ele>
      </trkpt>
      <trkpt lat="44.18007" lon="1.75577">
        <ele>151</ele>
      </trkpt>
      <trkpt lat="44.1802" lon="1.75469">
        <ele>145</ele>
      </trkpt>
      <trkpt lat="44.17987" lon="1.75293">
        <ele>142</ele>
      </trkpt>
      <trkpt lat="44.17958" lon="1.75193">
        <ele>152</ele>
      </trkpt>
      <trkpt lat="44.17939" lon="1.75142">
        <ele>144</ele>
      </trkpt>
      <trkpt lat="44.17919" lon="1.75107">
        <ele>154</ele>
      </trkpt>
      <trkpt lat="44.1789" lon="1.75102">
        <ele>161.16</ele>
        <time>2014-04-30T14:52:23Z</time>
      </trkpt>
      <trkpt lat="44.17929" lon="1.75053">
        <ele>162.6</ele>
        <time>2014-04-30T14:52:48Z</time>
      </trkpt>
      <trkpt lat="44.17931" lon="1.75001">
        <ele>165</ele>
        <time>2014-04-30T14:53:06Z</time>
      </trkpt>
      <trkpt lat="44.17946" lon="1.74897">
        <ele>168.85</ele>
        <time>2014-04-30T14:53:42Z</time>
      </trkpt>
      <trkpt lat="44.17981" lon="1.74863">
        <ele>170.77</ele>
        <time>2014-04-30T14:54:01Z</time>
      </trkpt>
      <trkpt lat="44.18034" lon="1.74844">
        <ele>173.66</ele>
        <time>2014-04-30T14:54:27Z</time>
      </trkpt>
      <trkpt lat="44.18063" lon="1.74828">
        <ele>173.66</ele>
        <time>2014-04-30T14:54:40Z</time>
      </trkpt>
      <trkpt lat="44.18113" lon="1.74777">
        <ele>174.62</ele>
        <time>2014-04-30T14:55:05Z</time>
      </trkpt>
      <trkpt lat="44.18147" lon="1.74728">
        <ele>174.14</ele>
        <time>2014-04-30T14:55:21Z</time>
      </trkpt>
      <trkpt lat="44.18171" lon="1.74692">
        <ele>176.54</ele>
        <time>2014-04-30T14:55:39Z</time>
      </trkpt>
      <trkpt lat="44.18178" lon="1.74679">
        <ele>178.46</ele>
        <time>2014-04-30T14:55:48Z</time>
      </trkpt>
      <trkpt lat="44.18199" lon="1.74621">
        <ele>182.31</ele>
        <time>2014-04-30T14:56:25Z</time>
      </trkpt>
      <trkpt lat="44.18205" lon="1.74601">
        <ele>184.71</ele>
        <time>2014-04-30T14:56:38Z</time>
      </trkpt>
      <trkpt lat="44.18214" lon="1.74619">
        <ele>190.96</ele>
        <time>2014-04-30T14:57:09Z</time>
      </trkpt>
      <trkpt lat="44.18215" lon="1.7465">
        <ele>193.84</ele>
        <time>2014-04-30T14:57:29Z</time>
      </trkpt>
      <trkpt lat="44.18208" lon="1.74705">
        <ele>200.57</ele>
        <time>2014-04-30T14:58:04Z</time>
      </trkpt>
      <trkpt lat="44.18197" lon="1.74738">
        <ele>202.98</ele>
        <time>2014-04-30T14:58:27Z</time>
      </trkpt>
      <trkpt lat="44.18187" lon="1.74774">
        <ele>207.3</ele>
        <time>2014-04-30T14:58:53Z</time>
      </trkpt>
      <trkpt lat="44.18181" lon="1.74799">
        <ele>210.67</ele>
        <time>2014-04-30T14:59:09Z</time>
      </trkpt>
      <trkpt lat="44.18159" lon="1.74839">
        <ele>216.91</ele>
        <time>2014-04-30T14:59:39Z</time>
      </trkpt>
      <trkpt lat="44.18141" lon="1.74869">
        <ele>219.32</ele>
        <time>2014-04-30T15:00:02Z</time>
      </trkpt>
      <trkpt lat="44.18139" lon="1.7491">
        <ele>222.68</ele>
        <time>2014-04-30T15:00:26Z</time>
      </trkpt>
      <trkpt lat="44.18149" lon="1.74928">
        <ele>223.64</ele>
        <time>2014-04-30T15:00:38Z</time>
      </trkpt>
      <trkpt lat="44.18157" lon="1.7499">
        <ele>228.45</ele>
        <time>2014-04-30T15:01:13Z</time>
      </trkpt>
      <trkpt lat="44.18163" lon="1.75019">
        <ele>231.81</ele>
        <time>2014-04-30T15:01:30Z</time>
      </trkpt>
      <trkpt lat="44.1818" lon="1.7504">
        <ele>235.66</ele>
        <time>2014-04-30T15:01:47Z</time>
      </trkpt>
      <trkpt lat="44.18199" lon="1.75046">
        <ele>238.54</ele>
        <time>2014-04-30T15:02:03Z</time>
      </trkpt>
      <trkpt lat="44.18226" lon="1.75061">
        <ele>245.27</ele>
        <time>2014-04-30T15:02:31Z</time>
      </trkpt>
      <trkpt lat="44.18241" lon="1.75066">
        <ele>247.68</ele>
        <time>2014-04-30T15:02:45Z</time>
      </trkpt>
      <trkpt lat="44.18258" lon="1.75047">
        <ele>252.48</ele>
        <time>2014-04-30T15:03:04Z</time>
      </trkpt>
      <trkpt lat="44.18273" lon="1.75028">
        <ele>255.85</ele>
        <time>2014-04-30T15:03:21Z</time>
      </trkpt>
      <trkpt lat="44.18297" lon="1.74994">
        <ele>262.1</ele>
        <time>2014-04-30T15:03:48Z</time>
      </trkpt>
      <trkpt lat="44.1831" lon="1.74985">
        <ele>265.46</ele>
        <time>2014-04-30T15:04:01Z</time>
      </trkpt>
      <trkpt lat="44.18327" lon="1.75007">
        <ele>270.75</ele>
        <time>2014-04-30T15:04:24Z</time>
      </trkpt>
      <trkpt lat="44.18339" lon="1.75026">
        <ele>274.11</ele>
        <time>2014-04-30T15:04:39Z</time>
      </trkpt>
      <trkpt lat="44.18363" lon="1.7506">
        <ele>280.36</ele>
        <time>2014-04-30T15:05:07Z</time>
      </trkpt>
      <trkpt lat="44.18377" lon="1.75079">
        <ele>283.73</ele>
        <time>2014-04-30T15:05:24Z</time>
      </trkpt>
      <trkpt lat="44.18408" lon="1.75104">
        <ele>290.46</ele>
        <time>2014-04-30T15:05:54Z</time>
      </trkpt>
      <trkpt lat="44.18426" lon="1.75123">
        <ele>292.86</ele>
        <time>2014-04-30T15:06:11Z</time>
      </trkpt>
      <trkpt lat="44.18446" lon="1.75127">
        <ele>296.22</ele>
        <time>2014-04-30T15:06:27Z</time>
      </trkpt>
      <trkpt lat="44.18469" lon="1.75131">
        <ele>298.63</ele>
        <time>2014-04-30T15:06:44Z</time>
      </trkpt>
      <trkpt lat="44.18517" lon="1.75138">
        <ele>302.47</ele>
        <time>2014-04-30T15:07:14Z</time>
      </trkpt>
      <trkpt lat="44.18557" lon="1.75149">
        <ele>302.47</ele>
        <time>2014-04-30T15:07:30Z</time>
      </trkpt>
      <trkpt lat="44.18673" lon="1.7515">
        <ele>301.03</ele>
        <time>2014-04-30T15:08:01Z</time>
      </trkpt>
      <trkpt lat="44.18697" lon="1.75145">
        <ele>300.07</ele>
        <time>2014-04-30T15:08:06Z</time>
      </trkpt>
      <trkpt lat="44.18794" lon="1.75148">
        <ele>300.07</ele>
        <time>2014-04-30T15:08:29Z</time>
      </trkpt>
      <trkpt lat="44.18845" lon="1.75147">
        <ele>300.07</ele>
        <time>2014-04-30T15:08:41Z</time>
      </trkpt>
      <trkpt lat="44.18854" lon="1.75146">
        <ele>300.07</ele>
        <time>2014-04-30T15:08:43Z</time>
      </trkpt>
      <trkpt lat="44.18858" lon="1.75146">
        <ele>300.07</ele>
        <time>2014-04-30T15:08:44Z</time>
      </trkpt>
      <trkpt lat="44.18876" lon="1.75145">
        <ele>299.59</ele>
        <time>2014-04-30T15:08:48Z</time>
      </trkpt>
      <trkpt lat="44.18886" lon="1.75142">
        <ele>299.11</ele>
        <time>2014-04-30T15:08:50Z</time>
      </trkpt>
      <trkpt lat="44.18896" lon="1.75141">
        <ele>299.11</ele>
        <time>2014-04-30T15:08:52Z</time>
      </trkpt>
      <trkpt lat="44.1897" lon="1.75149">
        <ele>299.11</ele>
        <time>2014-04-30T15:09:08Z</time>
      </trkpt>
      <trkpt lat="44.19044" lon="1.75181">
        <ele>303.43</ele>
        <time>2014-04-30T15:09:27Z</time>
      </trkpt>
      <trkpt lat="44.19089" lon="1.75203">
        <ele>306.32</ele>
        <time>2014-04-30T15:09:39Z</time>
      </trkpt>
      <trkpt lat="44.1917" lon="1.7524">
        <ele>313.05</ele>
        <time>2014-04-30T15:10:00Z</time>
      </trkpt>
      <trkpt lat="44.1922" lon="1.75264">
        <ele>314.97</ele>
        <time>2014-04-30T15:10:15Z</time>
      </trkpt>
      <trkpt lat="44.19294" lon="1.7529">
        <ele>315.45</ele>
        <time>2014-04-30T15:10:36Z</time>
      </trkpt>
      <trkpt lat="44.19322" lon="1.75294">
        <ele>314.01</ele>
        <time>2014-04-30T15:10:42Z</time>
      </trkpt>
      <trkpt lat="44.19349" lon="1.75291">
        <ele>313.53</ele>
        <time>2014-04-30T15:10:47Z</time>
      </trkpt>
      <trkpt lat="44.19432" lon="1.75267">
        <ele>311.12</ele>
        <time>2014-04-30T15:11:03Z</time>
      </trkpt>
      <trkpt lat="44.19502" lon="1.75249">
        <ele>309.2</ele>
        <time>2014-04-30T15:11:15Z</time>
      </trkpt>
      <trkpt lat="44.19519" lon="1.7525">
        <ele>308.72</ele>
        <time>2014-04-30T15:11:18Z</time>
      </trkpt>
      <trkpt lat="44.19557" lon="1.75258">
        <ele>308.72</ele>
        <time>2014-04-30T15:11:25Z</time>
      </trkpt>
      <trkpt lat="44.19587" lon="1.75261">
        <ele>308.72</ele>
        <time>2014-04-30T15:11:32Z</time>
      </trkpt>
      <trkpt lat="44.19611" lon="1.75267">
        <ele>308.72</ele>
        <time>2014-04-30T15:11:38Z</time>
      </trkpt>
      <trkpt lat="44.19615" lon="1.75271">
        <ele>308.72</ele>
        <time>2014-04-30T15:11:39Z</time>
      </trkpt>
      <trkpt lat="44.19618" lon="1.75284">
        <ele>308.72</ele>
        <time>2014-04-30T15:11:41Z</time>
      </trkpt>
      <trkpt lat="44.19618" lon="1.7529">
        <ele>308.72</ele>
        <time>2014-04-30T15:11:42Z</time>
      </trkpt>
      <trkpt lat="44.19607" lon="1.75456">
        <ele>303.43</ele>
        <time>2014-04-30T15:12:03Z</time>
      </trkpt>
      <trkpt lat="44.19603" lon="1.75487">
        <ele>301.99</ele>
        <time>2014-04-30T15:12:06Z</time>
      </trkpt>
      <trkpt lat="44.19604" lon="1.75569">
        <ele>296.22</ele>
        <time>2014-04-30T15:12:13Z</time>
      </trkpt>
      <trkpt lat="44.19614" lon="1.75613">
        <ele>294.78</ele>
        <time>2014-04-30T15:12:17Z</time>
      </trkpt>
      <trkpt lat="44.19657" lon="1.75863">
        <ele>291.42</ele>
        <time>2014-04-30T15:12:41Z</time>
      </trkpt>
      <trkpt lat="44.19658" lon="1.75876">
        <ele>291.42</ele>
        <time>2014-04-30T15:12:43Z</time>
      </trkpt>
      <trkpt lat="44.19664" lon="1.75884">
        <ele>291.42</ele>
        <time>2014-04-30T15:12:45Z</time>
      </trkpt>
      <trkpt lat="44.19694" lon="1.75904">
        <ele>293.82</ele>
        <time>2014-04-30T15:12:53Z</time>
      </trkpt>
      <trkpt lat="44.19806" lon="1.75908">
        <ele>298.63</ele>
        <time>2014-04-30T15:13:22Z</time>
      </trkpt>
      <trkpt lat="44.19874" lon="1.75896">
        <ele>299.11</ele>
        <time>2014-04-30T15:13:39Z</time>
      </trkpt>
      <trkpt lat="44.20016" lon="1.7591">
        <ele>294.78</ele>
        <time>2014-04-30T15:14:06Z</time>
      </trkpt>
      <trkpt lat="44.20043" lon="1.75902">
        <ele>294.78</ele>
        <time>2014-04-30T15:14:11Z</time>
      </trkpt>
      <trkpt lat="44.20073" lon="1.75887">
        <ele>294.78</ele>
        <time>2014-04-30T15:14:17Z</time>
      </trkpt>
      <trkpt lat="44.20078" lon="1.75887">
        <ele>294.78</ele>
        <time>2014-04-30T15:14:18Z</time>
      </trkpt>
      <trkpt lat="44.20088" lon="1.75889">
        <ele>294.78</ele>
        <time>2014-04-30T15:14:20Z</time>
      </trkpt>
      <trkpt lat="44.20092" lon="1.75892">
        <ele>294.78</ele>
        <time>2014-04-30T15:14:21Z</time>
      </trkpt>
      <trkpt lat="44.20102" lon="1.759">
        <ele>294.78</ele>
        <time>2014-04-30T15:14:23Z</time>
      </trkpt>
      <trkpt lat="44.20163" lon="1.75955">
        <ele>295.26</ele>
        <time>2014-04-30T15:14:37Z</time>
      </trkpt>
      <trkpt lat="44.20209" lon="1.76021">
        <ele>299.59</ele>
        <time>2014-04-30T15:14:54Z</time>
      </trkpt>
      <trkpt lat="44.20213" lon="1.76023">
        <ele>299.59</ele>
        <time>2014-04-30T15:14:55Z</time>
      </trkpt>
      <trkpt lat="44.2022" lon="1.76027">
        <ele>300.55</ele>
        <time>2014-04-30T15:14:57Z</time>
      </trkpt>
      <trkpt lat="44.20224" lon="1.76029">
        <ele>300.55</ele>
        <time>2014-04-30T15:14:58Z</time>
      </trkpt>
      <trkpt lat="44.20273" lon="1.76033">
        <ele>303.91</ele>
        <time>2014-04-30T15:15:11Z</time>
      </trkpt>
      <trkpt lat="44.20327" lon="1.76019">
        <ele>305.84</ele>
        <time>2014-04-30T15:15:26Z</time>
      </trkpt>
      <trkpt lat="44.20415" lon="1.76032">
        <ele>302.95</ele>
        <time>2014-04-30T15:15:47Z</time>
      </trkpt>
      <trkpt lat="44.20445" lon="1.76048">
        <ele>299.59</ele>
        <time>2014-04-30T15:15:51Z</time>
      </trkpt>
      <trkpt lat="44.20547" lon="1.76141">
        <ele>296.22</ele>
        <time>2014-04-30T15:16:05Z</time>
      </trkpt>
      <trkpt lat="44.20552" lon="1.76144">
        <ele>296.7</ele>
        <time>2014-04-30T15:16:06Z</time>
      </trkpt>
      <trkpt lat="44.20601" lon="1.76165">
        <ele>295.26</ele>
        <time>2014-04-30T15:16:15Z</time>
      </trkpt>
      <trkpt lat="44.2066" lon="1.76184">
        <ele>291.9</ele>
        <time>2014-04-30T15:16:24Z</time>
      </trkpt>
      <trkpt lat="44.20793" lon="1.76214">
        <ele>286.61</ele>
        <time>2014-04-30T15:16:46Z</time>
      </trkpt>
      <trkpt lat="44.20797" lon="1.76237">
        <ele>283.73</ele>
        <time>2014-04-30T15:16:54Z</time>
      </trkpt>
      <trkpt lat="44.20771" lon="1.76279">
        <ele>277</ele>
        <time>2014-04-30T15:17:12Z</time>
      </trkpt>
      <trkpt lat="44.20748" lon="1.76297">
        <ele>274.11</ele>
        <time>2014-04-30T15:17:28Z</time>
      </trkpt>
      <trkpt lat="44.20721" lon="1.76312">
        <ele>276.04</ele>
        <time>2014-04-30T15:18:02Z</time>
      </trkpt>
      <trkpt lat="44.20715" lon="1.76318">
        <ele>274.59</ele>
        <time>2014-04-30T15:18:04Z</time>
      </trkpt>
      <trkpt lat="44.20695" lon="1.76337">
        <ele>270.27</ele>
        <time>2014-04-30T15:18:10Z</time>
      </trkpt>
      <trkpt lat="44.2069" lon="1.76339">
        <ele>269.79</ele>
        <time>2014-04-30T15:18:11Z</time>
      </trkpt>
      <trkpt lat="44.20663" lon="1.76346">
        <ele>264.98</ele>
        <time>2014-04-30T15:18:16Z</time>
      </trkpt>
      <trkpt lat="44.20645" lon="1.76349">
        <ele>261.62</ele>
        <time>2014-04-30T15:18:19Z</time>
      </trkpt>
      <trkpt lat="44.20615" lon="1.76356">
        <ele>257.29</ele>
        <time>2014-04-30T15:18:24Z</time>
      </trkpt>
      <trkpt lat="44.206" lon="1.76358">
        <ele>254.89</ele>
        <time>2014-04-30T15:18:27Z</time>
      </trkpt>
      <trkpt lat="44.20535" lon="1.76375">
        <ele>247.2</ele>
        <time>2014-04-30T15:18:38Z</time>
      </trkpt>
      <trkpt lat="44.20532" lon="1.76379">
        <ele>246.72</ele>
        <time>2014-04-30T15:18:39Z</time>
      </trkpt>
      <trkpt lat="44.20527" lon="1.76386">
        <ele>246.23</ele>
        <time>2014-04-30T15:18:41Z</time>
      </trkpt>
      <trkpt lat="44.20526" lon="1.76389">
        <ele>246.23</ele>
        <time>2014-04-30T15:18:42Z</time>
      </trkpt>
      <trkpt lat="44.20526" lon="1.76395">
        <ele>242.39</ele>
        <time>2014-04-30T15:18:49Z</time>
      </trkpt>
      <trkpt lat="44.2053" lon="1.764">
        <ele>239.02</ele>
        <time>2014-04-30T15:18:53Z</time>
      </trkpt>
      <trkpt lat="44.20539" lon="1.76412">
        <ele>233.26</ele>
        <time>2014-04-30T15:18:59Z</time>
      </trkpt>
      <trkpt lat="44.20541" lon="1.76412">
        <ele>232.78</ele>
        <time>2014-04-30T15:19:00Z</time>
      </trkpt>
      <trkpt lat="44.20553" lon="1.7643">
        <ele>227.49</ele>
        <time>2014-04-30T15:19:09Z</time>
      </trkpt>
      <trkpt lat="44.20539" lon="1.76451">
        <ele>224.12</ele>
        <time>2014-04-30T15:19:16Z</time>
      </trkpt>
      <trkpt lat="44.20487" lon="1.76489">
        <ele>217.88</ele>
        <time>2014-04-30T15:19:37Z</time>
      </trkpt>
      <trkpt lat="44.20476" lon="1.76496">
        <ele>217.88</ele>
        <time>2014-04-30T15:19:43Z</time>
      </trkpt>
      <trkpt lat="44.2046" lon="1.76489">
        <ele>217.4</ele>
        <time>2014-04-30T15:19:49Z</time>
      </trkpt>
      <trkpt lat="44.20443" lon="1.76506">
        <ele>214.03</ele>
        <time>2014-04-30T15:19:55Z</time>
      </trkpt>
      <trkpt lat="44.2043" lon="1.76513">
        <ele>213.55</ele>
        <time>2014-04-30T15:19:59Z</time>
      </trkpt>
      <trkpt lat="44.20428" lon="1.76512">
        <ele>213.55</ele>
        <time>2014-04-30T15:20:00Z</time>
      </trkpt>
      <trkpt lat="44.20424" lon="1.7651">
        <ele>213.55</ele>
        <time>2014-04-30T15:20:02Z</time>
      </trkpt>
      <trkpt lat="44.20422" lon="1.76509">
        <ele>214.03</ele>
        <time>2014-04-30T15:20:03Z</time>
      </trkpt>
      <trkpt lat="44.20416" lon="1.76508">
        <ele>214.03</ele>
        <time>2014-04-30T15:20:05Z</time>
      </trkpt>
      <trkpt lat="44.20414" lon="1.76508">
        <ele>214.03</ele>
        <time>2014-04-30T15:20:06Z</time>
      </trkpt>
      <trkpt lat="44.20369" lon="1.76511">
        <ele>210.67</ele>
        <time>2014-04-30T15:20:17Z</time>
      </trkpt>
      <trkpt lat="44.20365" lon="1.76515">
        <ele>210.19</ele>
        <time>2014-04-30T15:20:18Z</time>
      </trkpt>
      <trkpt lat="44.20355" lon="1.76534">
        <ele>205.86</ele>
        <time>2014-04-30T15:20:23Z</time>
      </trkpt>
      <trkpt lat="44.20353" lon="1.76541">
        <ele>204.9</ele>
        <time>2014-04-30T15:20:24Z</time>
      </trkpt>
      <trkpt lat="44.20355" lon="1.76578">
        <ele>200.57</ele>
        <time>2014-04-30T15:20:28Z</time>
      </trkpt>
      <trkpt lat="44.20355" lon="1.76583">
        <ele>201.05</ele>
        <time>2014-04-30T15:20:29Z</time>
      </trkpt>
      <trkpt lat="44.20388" lon="1.76594">
        <ele>206.34</ele>
        <time>2014-04-30T15:20:41Z</time>
      </trkpt>
      <trkpt lat="44.204" lon="1.76604">
        <ele>209.7</ele>
        <time>2014-04-30T15:20:59Z</time>
      </trkpt>
      <trkpt lat="44.20417" lon="1.7682">
        <ele>216.43</ele>
        <time>2014-04-30T15:21:30Z</time>
      </trkpt>
      <trkpt lat="44.20429" lon="1.76861">
        <ele>219.8</ele>
        <time>2014-04-30T15:21:45Z</time>
      </trkpt>
      <trkpt lat="44.20459" lon="1.76937">
        <ele>221.72</ele>
        <time>2014-04-30T15:22:19Z</time>
      </trkpt>
      <trkpt lat="44.20471" lon="1.76987">
        <ele>220.28</ele>
        <time>2014-04-30T15:22:34Z</time>
      </trkpt>
      <trkpt lat="44.20483" lon="1.77026">
        <ele>222.2</ele>
        <time>2014-04-30T15:22:50Z</time>
      </trkpt>
      <trkpt lat="44.20489" lon="1.77031">
        <ele>222.68</ele>
        <time>2014-04-30T15:30:14Z</time>
      </trkpt>
      <trkpt lat="44.20503" lon="1.77043">
        <ele>227.01</ele>
        <time>2014-04-30T15:30:43Z</time>
      </trkpt>
      <trkpt lat="44.20512" lon="1.77043">
        <ele>228.45</ele>
        <time>2014-04-30T15:31:04Z</time>
      </trkpt>
      <trkpt lat="44.20526" lon="1.77056">
        <ele>233.74</ele>
        <time>2014-04-30T15:31:47Z</time>
      </trkpt>
      <trkpt lat="44.20527" lon="1.77058">
        <ele>234.22</ele>
        <time>2014-04-30T15:31:49Z</time>
      </trkpt>
      <trkpt lat="44.20543" lon="1.77088">
        <ele>241.43</ele>
        <time>2014-04-30T15:32:14Z</time>
      </trkpt>
      <trkpt lat="44.20545" lon="1.77091">
        <ele>241.91</ele>
        <time>2014-04-30T15:32:18Z</time>
      </trkpt>
      <trkpt lat="44.2056" lon="1.77111">
        <ele>248.64</ele>
        <time>2014-04-30T15:32:37Z</time>
      </trkpt>
      <trkpt lat="44.20569" lon="1.77123">
        <ele>252</ele>
        <time>2014-04-30T15:32:50Z</time>
      </trkpt>
      <trkpt lat="44.20582" lon="1.77145">
        <ele>258.25</ele>
        <time>2014-04-30T15:33:11Z</time>
      </trkpt>
      <trkpt lat="44.2059" lon="1.77167">
        <ele>261.62</ele>
        <time>2014-04-30T15:33:31Z</time>
      </trkpt>
      <trkpt lat="44.20603" lon="1.77198">
        <ele>268.35</ele>
        <time>2014-04-30T15:33:59Z</time>
      </trkpt>
      <trkpt lat="44.20615" lon="1.7722">
        <ele>270.75</ele>
        <time>2014-04-30T15:34:19Z</time>
      </trkpt>
      <trkpt lat="44.20641" lon="1.77246">
        <ele>275.07</ele>
        <time>2014-04-30T15:34:47Z</time>
      </trkpt>
      <trkpt lat="44.20644" lon="1.7725">
        <ele>276.52</ele>
        <time>2014-04-30T15:35:03Z</time>
      </trkpt>
      <trkpt lat="44.20653" lon="1.77252">
        <ele>278.44</ele>
        <time>2014-04-30T15:35:52Z</time>
      </trkpt>
      <trkpt lat="44.20657" lon="1.77252">
        <ele>279.88</ele>
        <time>2014-04-30T15:36:17Z</time>
      </trkpt>
      <trkpt lat="44.20675" lon="1.77264">
        <ele>283.25</ele>
        <time>2014-04-30T15:36:34Z</time>
      </trkpt>
      <trkpt lat="44.20681" lon="1.77267">
        <ele>284.69</ele>
        <time>2014-04-30T15:36:38Z</time>
      </trkpt>
      <trkpt lat="44.20715" lon="1.77294">
        <ele>290.94</ele>
        <time>2014-04-30T15:37:13Z</time>
      </trkpt>
      <trkpt lat="44.20731" lon="1.77301">
        <ele>294.3</ele>
        <time>2014-04-30T15:37:28Z</time>
      </trkpt>
      <trkpt lat="44.20758" lon="1.77303">
        <ele>301.99</ele>
        <time>2014-04-30T15:37:49Z</time>
      </trkpt>
      <trkpt lat="44.20772" lon="1.77313">
        <ele>304.88</ele>
        <time>2014-04-30T15:38:05Z</time>
      </trkpt>
      <trkpt lat="44.20801" lon="1.77343">
        <ele>309.2</ele>
        <time>2014-04-30T15:38:45Z</time>
      </trkpt>
      <trkpt lat="44.20817" lon="1.77352">
        <ele>310.16</ele>
        <time>2014-04-30T15:39:02Z</time>
      </trkpt>
      <trkpt lat="44.20849" lon="1.77341">
        <ele>313.53</ele>
        <time>2014-04-30T15:39:36Z</time>
      </trkpt>
      <trkpt lat="44.20873" lon="1.77348">
        <ele>314.01</ele>
        <time>2014-04-30T15:39:52Z</time>
      </trkpt>
      <trkpt lat="44.20903" lon="1.77347">
        <ele>314.97</ele>
        <time>2014-04-30T15:40:11Z</time>
      </trkpt>
      <trkpt lat="44.20904" lon="1.7732">
        <ele>315.93</ele>
        <time>2014-04-30T15:40:26Z</time>
      </trkpt>
      <trkpt lat="44.20911" lon="1.77268">
        <ele>319.3</ele>
        <time>2014-04-30T15:40:50Z</time>
      </trkpt>
      <trkpt lat="44.20931" lon="1.77226">
        <ele>320.26</ele>
        <time>2014-04-30T15:41:08Z</time>
      </trkpt>
      <trkpt lat="44.20956" lon="1.77189">
        <ele>321.7</ele>
        <time>2014-04-30T15:41:26Z</time>
      </trkpt>
      <trkpt lat="44.20989" lon="1.77202">
        <ele>321.22</ele>
        <time>2014-04-30T15:41:41Z</time>
      </trkpt>
      <trkpt lat="44.21129" lon="1.77246">
        <ele>316.89</ele>
        <time>2014-04-30T15:42:17Z</time>
      </trkpt>
      <trkpt lat="44.21152" lon="1.7725">
        <ele>315.45</ele>
        <time>2014-04-30T15:42:21Z</time>
      </trkpt>
      <trkpt lat="44.21285" lon="1.77277">
        <ele>311.12</ele>
        <time>2014-04-30T15:42:44Z</time>
      </trkpt>
      <trkpt lat="44.21351" lon="1.77287">
        <ele>312.57</ele>
        <time>2014-04-30T15:42:58Z</time>
      </trkpt>
      <trkpt lat="44.21494" lon="1.77305">
        <ele>318.33</ele>
        <time>2014-04-30T15:43:34Z</time>
      </trkpt>
      <trkpt lat="44.21563" lon="1.77292">
        <ele>319.78</ele>
        <time>2014-04-30T15:43:51Z</time>
      </trkpt>
      <trkpt lat="44.21604" lon="1.77267">
        <ele>319.78</ele>
        <time>2014-04-30T15:44:01Z</time>
      </trkpt>
      <trkpt lat="44.21607" lon="1.77263">
        <ele>319.78</ele>
        <time>2014-04-30T15:44:02Z</time>
      </trkpt>
      <trkpt lat="44.21613" lon="1.77254">
        <ele>319.78</ele>
        <time>2014-04-30T15:44:04Z</time>
      </trkpt>
      <trkpt lat="44.21672" lon="1.7716">
        <ele>321.22</ele>
        <time>2014-04-30T15:44:25Z</time>
      </trkpt>
      <trkpt lat="44.21748" lon="1.77035">
        <ele>321.22</ele>
        <time>2014-04-30T15:45:44Z</time>
      </trkpt>
      <trkpt lat="44.21783" lon="1.76977">
        <ele>319.78</ele>
        <time>2014-04-30T15:45:58Z</time>
      </trkpt>
      <trkpt lat="44.21841" lon="1.76908">
        <ele>320.26</ele>
        <time>2014-04-30T15:46:15Z</time>
      </trkpt>
      <trkpt lat="44.21842" lon="1.7691">
        <ele>320.26</ele>
        <time>2014-04-30T15:46:16Z</time>
      </trkpt>
      <trkpt lat="44.21857" lon="1.76948">
        <ele>317.37</ele>
        <time>2014-04-30T15:46:23Z</time>
      </trkpt>
      <trkpt lat="44.21884" lon="1.7701">
        <ele>314.01</ele>
        <time>2014-04-30T15:46:31Z</time>
      </trkpt>
      <trkpt lat="44.21898" lon="1.77035">
        <ele>312.57</ele>
        <time>2014-04-30T15:46:34Z</time>
      </trkpt>
      <trkpt lat="44.21932" lon="1.77087">
        <ele>309.2</ele>
        <time>2014-04-30T15:46:40Z</time>
      </trkpt>
      <trkpt lat="44.21954" lon="1.77123">
        <ele>308.24</ele>
        <time>2014-04-30T15:46:44Z</time>
      </trkpt>
      <trkpt lat="44.21961" lon="1.77129">
        <ele>308.24</ele>
        <time>2014-04-30T15:46:45Z</time>
      </trkpt>
      <trkpt lat="44.21974" lon="1.77137">
        <ele>308.24</ele>
        <time>2014-04-30T15:46:47Z</time>
      </trkpt>
      <trkpt lat="44.2198" lon="1.77139">
        <ele>308.24</ele>
        <time>2014-04-30T15:46:48Z</time>
      </trkpt>
      <trkpt lat="44.21998" lon="1.77145">
        <ele>308.24</ele>
        <time>2014-04-30T15:46:51Z</time>
      </trkpt>
      <trkpt lat="44.22002" lon="1.77147">
        <ele>308.24</ele>
        <time>2014-04-30T15:46:52Z</time>
      </trkpt>
      <trkpt lat="44.2201" lon="1.77155">
        <ele>309.68</ele>
        <time>2014-04-30T15:46:54Z</time>
      </trkpt>
      <trkpt lat="44.22013" lon="1.77159">
        <ele>309.68</ele>
        <time>2014-04-30T15:46:55Z</time>
      </trkpt>
      <trkpt lat="44.22017" lon="1.77166">
        <ele>309.68</ele>
        <time>2014-04-30T15:46:57Z</time>
      </trkpt>
      <trkpt lat="44.22028" lon="1.77204">
        <ele>310.64</ele>
        <time>2014-04-30T15:47:08Z</time>
      </trkpt>
      <trkpt lat="44.22003" lon="1.77251">
        <ele>307.28</ele>
        <time>2014-04-30T15:47:20Z</time>
      </trkpt>
      <trkpt lat="44.22004" lon="1.77254">
        <ele>306.8</ele>
        <time>2014-04-30T15:47:21Z</time>
      </trkpt>
      <trkpt lat="44.2201" lon="1.77256">
        <ele>306.8</ele>
        <time>2014-04-30T15:47:23Z</time>
      </trkpt>
      <trkpt lat="44.22012" lon="1.77256">
        <ele>306.8</ele>
        <time>2014-04-30T15:47:24Z</time>
      </trkpt>
      <trkpt lat="44.22057" lon="1.77262">
        <ele>305.84</ele>
        <time>2014-04-30T15:47:39Z</time>
      </trkpt>
      <trkpt lat="44.22068" lon="1.77269">
        <ele>305.36</ele>
        <time>2014-04-30T15:47:43Z</time>
      </trkpt>
      <trkpt lat="44.22073" lon="1.77269">
        <ele>305.36</ele>
        <time>2014-04-30T15:47:45Z</time>
      </trkpt>
      <trkpt lat="44.22076" lon="1.77268">
        <ele>305.36</ele>
        <time>2014-04-30T15:47:46Z</time>
      </trkpt>
      <trkpt lat="44.22128" lon="1.77249">
        <ele>302.47</ele>
        <time>2014-04-30T15:48:00Z</time>
      </trkpt>
      <trkpt lat="44.22141" lon="1.77241">
        <ele>305.84</ele>
        <time>2014-04-30T15:48:11Z</time>
      </trkpt>
      <trkpt lat="44.22186" lon="1.77182">
        <ele>312.57</ele>
        <time>2014-04-30T15:48:46Z</time>
      </trkpt>
      <trkpt lat="44.22213" lon="1.77144">
        <ele>314.01</ele>
        <time>2014-04-30T15:49:05Z</time>
      </trkpt>
      <trkpt lat="44.22284" lon="1.77064">
        <ele>312.57</ele>
        <time>2014-04-30T15:49:34Z</time>
      </trkpt>
      <trkpt lat="44.22322" lon="1.77027">
        <ele>309.2</ele>
        <time>2014-04-30T15:49:46Z</time>
      </trkpt>
      <trkpt lat="44.22357" lon="1.77011">
        <ele>305.84</ele>
        <time>2014-04-30T15:49:53Z</time>
      </trkpt>
      <trkpt lat="44.2237" lon="1.77005">
        <ele>304.39</ele>
        <time>2014-04-30T15:49:55Z</time>
      </trkpt>
      <trkpt lat="44.22404" lon="1.76987">
        <ele>300.07</ele>
        <time>2014-04-30T15:50:00Z</time>
      </trkpt>
      <trkpt lat="44.22424" lon="1.7697">
        <ele>295.74</ele>
        <time>2014-04-30T15:50:03Z</time>
      </trkpt>
      <trkpt lat="44.22462" lon="1.76926">
        <ele>288.53</ele>
        <time>2014-04-30T15:50:09Z</time>
      </trkpt>
      <trkpt lat="44.22477" lon="1.769">
        <ele>287.09</ele>
        <time>2014-04-30T15:50:12Z</time>
      </trkpt>
      <trkpt lat="44.22513" lon="1.76867">
        <ele>283.73</ele>
        <time>2014-04-30T15:50:18Z</time>
      </trkpt>
      <trkpt lat="44.22532" lon="1.76846">
        <ele>279.88</ele>
        <time>2014-04-30T15:50:21Z</time>
      </trkpt>
      <trkpt lat="44.22585" lon="1.76786">
        <ele>282.28</ele>
        <time>2014-04-30T15:50:30Z</time>
      </trkpt>
      <trkpt lat="44.22577" lon="1.76805">
        <ele>275.4</ele>
      </trkpt>
      <trkpt lat="44.22586" lon="1.76839">
        <ele>274.5</ele>
      </trkpt>
      <trkpt lat="44.22575" lon="1.76904">
        <ele>274.3</ele>
      </trkpt>
      <trkpt lat="44.22574" lon="1.76964">
        <ele>275.9</ele>
      </trkpt>
      <trkpt lat="44.22557" lon="1.77042">
        <ele>262.6</ele>
      </trkpt>
      <trkpt lat="44.22568" lon="1.77135">
        <ele>262.6</ele>
      </trkpt>
      <trkpt lat="44.22597" lon="1.77213">
        <ele>275.1</ele>
      </trkpt>
      <trkpt lat="44.22608" lon="1.7727">
        <ele>277.7</ele>
      </trkpt>
      <trkpt lat="44.22599" lon="1.77354">
        <ele>255.2</ele>
      </trkpt>
      <trkpt lat="44.22613" lon="1.77395">
        <ele>249.3</ele>
      </trkpt>
      <trkpt lat="44.22637" lon="1.77476">
        <ele>238.3</ele>
      </trkpt>
      <trkpt lat="44.22656" lon="1.77557">
        <ele>227.6</ele>
      </trkpt>
      <trkpt lat="44.22703" lon="1.77624">
        <ele>220.5</ele>
      </trkpt>
      <trkpt lat="44.22728" lon="1.77658">
        <ele>219.4</ele>
      </trkpt>
      <trkpt lat="44.22787" lon="1.77679">
        <ele>224.2</ele>
      </trkpt>
      <trkpt lat="44.22822" lon="1.77723">
        <ele>217.5</ele>
      </trkpt>
      <trkpt lat="44.22825" lon="1.77762">
        <ele>212.4</ele>
      </trkpt>
      <trkpt lat="44.22841" lon="1.77762">
        <ele>213.6</ele>
      </trkpt>
      <trkpt lat="44.22863" lon="1.77741">
        <ele>217.5</ele>
      </trkpt>
      <trkpt lat="44.22884" lon="1.77749">
        <ele>218.7</ele>
      </trkpt>
      <trkpt lat="44.22908" lon="1.77762">
        <ele>217.9</ele>
      </trkpt>
      <trkpt lat="44.22949" lon="1.77765">
        <ele>220.3</ele>
      </trkpt>
      <trkpt lat="44.2301" lon="1.77767">
        <ele>224.5</ele>
      </trkpt>
      <trkpt lat="44.23043" lon="1.77778">
        <ele>224</ele>
      </trkpt>
      <trkpt lat="44.23091" lon="1.77775">
        <ele>218.7</ele>
      </trkpt>
      <trkpt lat="44.2314" lon="1.7771">
        <ele>220.6</ele>
      </trkpt>
      <trkpt lat="44.23174" lon="1.77653">
        <ele>218.2</ele>
      </trkpt>
      <trkpt lat="44.23229" lon="1.77593">
        <ele>210.8</ele>
      </trkpt>
      <trkpt lat="44.23242" lon="1.77609">
        <ele>207.6</ele>
      </trkpt>
      <trkpt lat="44.23287" lon="1.77531">
        <ele>196.6</ele>
      </trkpt>
      <trkpt lat="44.23303" lon="1.77518">
        <ele>193.7</ele>
      </trkpt>
      <trkpt lat="44.23319" lon="1.77507">
        <ele>190.9</ele>
      </trkpt>
      <trkpt lat="44.23344" lon="1.77437">
        <ele>190.2</ele>
      </trkpt>
      <trkpt lat="44.23362" lon="1.77398">
        <ele>188.9</ele>
      </trkpt>
      <trkpt lat="44.23395" lon="1.77354">
        <ele>187.5</ele>
      </trkpt>
      <trkpt lat="44.23429" lon="1.77372">
        <ele>187.4</ele>
      </trkpt>
      <trkpt lat="44.23477" lon="1.77385">
        <ele>188</ele>
      </trkpt>
      <trkpt lat="44.23506" lon="1.77364">
        <ele>190.7</ele>
      </trkpt>
      <trkpt lat="44.23551" lon="1.77382">
        <ele>194.2</ele>
      </trkpt>
      <trkpt lat="44.23575" lon="1.77544">
        <ele>190.3</ele>
      </trkpt>
      <trkpt lat="44.23599" lon="1.77567">
        <ele>193.4</ele>
      </trkpt>
      <trkpt lat="44.23705" lon="1.77611">
        <ele>203.2</ele>
      </trkpt>
      <trkpt lat="44.23709" lon="1.77645">
        <ele>208.9</ele>
      </trkpt>
      <trkpt lat="44.23716" lon="1.77655">
        <ele>211.5</ele>
      </trkpt>
      <trkpt lat="44.23736" lon="1.77642">
        <ele>212.3</ele>
      </trkpt>
      <trkpt lat="44.23764" lon="1.77642">
        <ele>213.5</ele>
      </trkpt>
      <trkpt lat="44.23775" lon="1.77692">
        <ele>221.5</ele>
      </trkpt>
      <trkpt lat="44.23793" lon="1.77726">
        <ele>223</ele>
      </trkpt>
      <trkpt lat="44.2379" lon="1.77733">
        <ele>224.1</ele>
      </trkpt>
      <trkpt lat="44.2377" lon="1.77744">
        <ele>227.7</ele>
      </trkpt>
      <trkpt lat="44.23763" lon="1.77784">
        <ele>233.3</ele>
      </trkpt>
      <trkpt lat="44.23758" lon="1.77785">
        <ele>234.1</ele>
      </trkpt>
      <trkpt lat="44.23753" lon="1.77787">
        <ele>234.9</ele>
      </trkpt>
      <trkpt lat="44.2374" lon="1.77805">
        <ele>235.6</ele>
      </trkpt>
      <trkpt lat="44.23743" lon="1.77818">
        <ele>236.6</ele>
      </trkpt>
      <trkpt lat="44.23741" lon="1.77838">
        <ele>237.6</ele>
      </trkpt>
      <trkpt lat="44.23705" lon="1.77888">
        <ele>242.2</ele>
      </trkpt>
      <trkpt lat="44.23672" lon="1.77925">
        <ele>245.4</ele>
      </trkpt>
    </trkseg>
  </trk>
</gpx>